<?xml version="1.0" encoding="UTF-8" standalone="no" ?>
<gpx xmlns="http://www.topografix.com/GPX/1/1" xmlns:xsi="http://www.w3.org/2001/XMLSchema-instance" xsi:schemaLocation="http://www.topografix.com/GPX/1/1 http://www.topografix.com/GPX/1/1/gpx.xsd" version="1.1" creator="VisuGPX - https://www.visugpx.com">
  <metadata>
    <name>Boucle Pla de las Pène </name>
    <desc><![CDATA[grp_trc:[visibles]]]></desc>
  </metadata>
  <trk>
    <name><![CDATA[ Boucle Pla de las Pène 1 avr. 2025]]></name>
    <cmt><![CDATA[07:04:50]]></cmt>
    <desc><![CDATA[comment ...]]></desc>
    <trkseg>
      <trkpt lat="42.94651" lon="0.23902">
        <ele>1238</ele>
        <time>2025-04-01T05:04:48Z</time>
      </trkpt>
      <trkpt lat="42.94651" lon="0.23902">
        <ele>1237</ele>
        <time>2025-04-01T05:04:50Z</time>
      </trkpt>
      <trkpt lat="42.9465" lon="0.23909">
        <ele>1237</ele>
        <time>2025-04-01T05:05:02Z</time>
      </trkpt>
      <trkpt lat="42.94648" lon="0.23917">
        <ele>1237</ele>
        <time>2025-04-01T05:05:08Z</time>
      </trkpt>
      <trkpt lat="42.94645" lon="0.23919">
        <ele>1238</ele>
        <time>2025-04-01T05:05:12Z</time>
      </trkpt>
      <trkpt lat="42.94642" lon="0.23918">
        <ele>1239</ele>
        <time>2025-04-01T05:05:16Z</time>
      </trkpt>
      <trkpt lat="42.9463" lon="0.23903">
        <ele>1238</ele>
        <time>2025-04-01T05:05:46Z</time>
      </trkpt>
      <trkpt lat="42.94624" lon="0.23895">
        <ele>1239</ele>
        <time>2025-04-01T05:05:56Z</time>
      </trkpt>
      <trkpt lat="42.9462" lon="0.23893">
        <ele>1238</ele>
        <time>2025-04-01T05:06:06Z</time>
      </trkpt>
      <trkpt lat="42.94608" lon="0.23883">
        <ele>1239</ele>
        <time>2025-04-01T05:06:30Z</time>
      </trkpt>
      <trkpt lat="42.9459" lon="0.23873">
        <ele>1242</ele>
        <time>2025-04-01T05:06:50Z</time>
      </trkpt>
      <trkpt lat="42.94586" lon="0.23869">
        <ele>1242</ele>
        <time>2025-04-01T05:07:24Z</time>
      </trkpt>
      <trkpt lat="42.94579" lon="0.23863">
        <ele>1244</ele>
        <time>2025-04-01T05:07:32Z</time>
      </trkpt>
      <trkpt lat="42.94577" lon="0.2386">
        <ele>1244</ele>
        <time>2025-04-01T05:07:36Z</time>
      </trkpt>
      <trkpt lat="42.94569" lon="0.23856">
        <ele>1246</ele>
        <time>2025-04-01T05:07:44Z</time>
      </trkpt>
      <trkpt lat="42.94557" lon="0.23855">
        <ele>1248</ele>
        <time>2025-04-01T05:07:58Z</time>
      </trkpt>
      <trkpt lat="42.94556" lon="0.2386">
        <ele>1249</ele>
        <time>2025-04-01T05:08:18Z</time>
      </trkpt>
      <trkpt lat="42.9455" lon="0.23866">
        <ele>1250</ele>
        <time>2025-04-01T05:08:26Z</time>
      </trkpt>
      <trkpt lat="42.94543" lon="0.23869">
        <ele>1249</ele>
        <time>2025-04-01T05:08:34Z</time>
      </trkpt>
      <trkpt lat="42.94528" lon="0.23874">
        <ele>1249</ele>
        <time>2025-04-01T05:08:56Z</time>
      </trkpt>
      <trkpt lat="42.9452" lon="0.23881">
        <ele>1251</ele>
        <time>2025-04-01T05:09:04Z</time>
      </trkpt>
      <trkpt lat="42.94516" lon="0.2389">
        <ele>1251</ele>
        <time>2025-04-01T05:09:30Z</time>
      </trkpt>
      <trkpt lat="42.94509" lon="0.239">
        <ele>1251</ele>
        <time>2025-04-01T05:09:38Z</time>
      </trkpt>
      <trkpt lat="42.94507" lon="0.23906">
        <ele>1251</ele>
        <time>2025-04-01T05:09:42Z</time>
      </trkpt>
      <trkpt lat="42.94504" lon="0.23911">
        <ele>1251</ele>
        <time>2025-04-01T05:09:46Z</time>
      </trkpt>
      <trkpt lat="42.94501" lon="0.23915">
        <ele>1251</ele>
        <time>2025-04-01T05:09:50Z</time>
      </trkpt>
      <trkpt lat="42.94497" lon="0.23916">
        <ele>1252</ele>
        <time>2025-04-01T05:09:54Z</time>
      </trkpt>
      <trkpt lat="42.94495" lon="0.2392">
        <ele>1252</ele>
        <time>2025-04-01T05:09:58Z</time>
      </trkpt>
      <trkpt lat="42.94484" lon="0.23939">
        <ele>1252</ele>
        <time>2025-04-01T05:10:14Z</time>
      </trkpt>
      <trkpt lat="42.9448" lon="0.23947">
        <ele>1253</ele>
        <time>2025-04-01T05:10:22Z</time>
      </trkpt>
      <trkpt lat="42.94479" lon="0.23943">
        <ele>1254</ele>
        <time>2025-04-01T05:10:30Z</time>
      </trkpt>
      <trkpt lat="42.94479" lon="0.23937">
        <ele>1254</ele>
        <time>2025-04-01T05:10:34Z</time>
      </trkpt>
      <trkpt lat="42.94478" lon="0.2393">
        <ele>1255</ele>
        <time>2025-04-01T05:10:40Z</time>
      </trkpt>
      <trkpt lat="42.94479" lon="0.23925">
        <ele>1256</ele>
        <time>2025-04-01T05:10:44Z</time>
      </trkpt>
      <trkpt lat="42.94479" lon="0.2392">
        <ele>1256</ele>
        <time>2025-04-01T05:10:48Z</time>
      </trkpt>
      <trkpt lat="42.94474" lon="0.23903">
        <ele>1256</ele>
        <time>2025-04-01T05:11:00Z</time>
      </trkpt>
      <trkpt lat="42.94475" lon="0.23899">
        <ele>1256</ele>
        <time>2025-04-01T05:11:02Z</time>
      </trkpt>
      <trkpt lat="42.94475" lon="0.23892">
        <ele>1254</ele>
        <time>2025-04-01T05:11:08Z</time>
      </trkpt>
      <trkpt lat="42.94474" lon="0.23887">
        <ele>1254</ele>
        <time>2025-04-01T05:11:14Z</time>
      </trkpt>
      <trkpt lat="42.94473" lon="0.23882">
        <ele>1255</ele>
        <time>2025-04-01T05:11:20Z</time>
      </trkpt>
      <trkpt lat="42.94471" lon="0.23876">
        <ele>1255</ele>
        <time>2025-04-01T05:11:26Z</time>
      </trkpt>
      <trkpt lat="42.9447" lon="0.23871">
        <ele>1256</ele>
        <time>2025-04-01T05:11:30Z</time>
      </trkpt>
      <trkpt lat="42.94468" lon="0.23866">
        <ele>1257</ele>
        <time>2025-04-01T05:11:36Z</time>
      </trkpt>
      <trkpt lat="42.94467" lon="0.23861">
        <ele>1257</ele>
        <time>2025-04-01T05:11:42Z</time>
      </trkpt>
      <trkpt lat="42.94463" lon="0.2386">
        <ele>1258</ele>
        <time>2025-04-01T05:11:48Z</time>
      </trkpt>
      <trkpt lat="42.9446" lon="0.23858">
        <ele>1259</ele>
        <time>2025-04-01T05:11:54Z</time>
      </trkpt>
      <trkpt lat="42.94457" lon="0.23855">
        <ele>1260</ele>
        <time>2025-04-01T05:11:58Z</time>
      </trkpt>
      <trkpt lat="42.94444" lon="0.23852">
        <ele>1262</ele>
        <time>2025-04-01T05:12:14Z</time>
      </trkpt>
      <trkpt lat="42.94441" lon="0.23847">
        <ele>1263</ele>
        <time>2025-04-01T05:12:20Z</time>
      </trkpt>
      <trkpt lat="42.94437" lon="0.23843">
        <ele>1263</ele>
        <time>2025-04-01T05:12:26Z</time>
      </trkpt>
      <trkpt lat="42.94433" lon="0.23845">
        <ele>1263</ele>
        <time>2025-04-01T05:12:32Z</time>
      </trkpt>
      <trkpt lat="42.94429" lon="0.23846">
        <ele>1264</ele>
        <time>2025-04-01T05:12:38Z</time>
      </trkpt>
      <trkpt lat="42.94424" lon="0.23843">
        <ele>1266</ele>
        <time>2025-04-01T05:12:44Z</time>
      </trkpt>
      <trkpt lat="42.94421" lon="0.23846">
        <ele>1267</ele>
        <time>2025-04-01T05:12:48Z</time>
      </trkpt>
      <trkpt lat="42.94412" lon="0.23833">
        <ele>1269</ele>
        <time>2025-04-01T05:13:04Z</time>
      </trkpt>
      <trkpt lat="42.94409" lon="0.23825">
        <ele>1270</ele>
        <time>2025-04-01T05:13:12Z</time>
      </trkpt>
      <trkpt lat="42.94406" lon="0.2382">
        <ele>1270</ele>
        <time>2025-04-01T05:13:18Z</time>
      </trkpt>
      <trkpt lat="42.94403" lon="0.23817">
        <ele>1271</ele>
        <time>2025-04-01T05:13:22Z</time>
      </trkpt>
      <trkpt lat="42.94399" lon="0.23814">
        <ele>1272</ele>
        <time>2025-04-01T05:13:30Z</time>
      </trkpt>
      <trkpt lat="42.94398" lon="0.2382">
        <ele>1273</ele>
        <time>2025-04-01T05:13:36Z</time>
      </trkpt>
      <trkpt lat="42.94395" lon="0.23823">
        <ele>1274</ele>
        <time>2025-04-01T05:13:42Z</time>
      </trkpt>
      <trkpt lat="42.94392" lon="0.23822">
        <ele>1274</ele>
        <time>2025-04-01T05:13:48Z</time>
      </trkpt>
      <trkpt lat="42.94388" lon="0.23825">
        <ele>1274</ele>
        <time>2025-04-01T05:13:54Z</time>
      </trkpt>
      <trkpt lat="42.94384" lon="0.23824">
        <ele>1274</ele>
        <time>2025-04-01T05:14:00Z</time>
      </trkpt>
      <trkpt lat="42.9438" lon="0.23825">
        <ele>1275</ele>
        <time>2025-04-01T05:14:06Z</time>
      </trkpt>
      <trkpt lat="42.94376" lon="0.23825">
        <ele>1277</ele>
        <time>2025-04-01T05:14:12Z</time>
      </trkpt>
      <trkpt lat="42.94372" lon="0.23822">
        <ele>1278</ele>
        <time>2025-04-01T05:14:18Z</time>
      </trkpt>
      <trkpt lat="42.94368" lon="0.23811">
        <ele>1279</ele>
        <time>2025-04-01T05:14:28Z</time>
      </trkpt>
      <trkpt lat="42.94365" lon="0.23807">
        <ele>1280</ele>
        <time>2025-04-01T05:14:34Z</time>
      </trkpt>
      <trkpt lat="42.94359" lon="0.23797">
        <ele>1282</ele>
        <time>2025-04-01T05:14:48Z</time>
      </trkpt>
      <trkpt lat="42.94356" lon="0.23793">
        <ele>1282</ele>
        <time>2025-04-01T05:15:50Z</time>
      </trkpt>
      <trkpt lat="42.94349" lon="0.23788">
        <ele>1283</ele>
        <time>2025-04-01T05:16:02Z</time>
      </trkpt>
      <trkpt lat="42.94346" lon="0.23789">
        <ele>1285</ele>
        <time>2025-04-01T05:16:06Z</time>
      </trkpt>
      <trkpt lat="42.94342" lon="0.2379">
        <ele>1286</ele>
        <time>2025-04-01T05:16:12Z</time>
      </trkpt>
      <trkpt lat="42.94338" lon="0.2379">
        <ele>1287</ele>
        <time>2025-04-01T05:16:18Z</time>
      </trkpt>
      <trkpt lat="42.94335" lon="0.23785">
        <ele>1287</ele>
        <time>2025-04-01T05:16:24Z</time>
      </trkpt>
      <trkpt lat="42.94333" lon="0.23789">
        <ele>1287</ele>
        <time>2025-04-01T05:16:30Z</time>
      </trkpt>
      <trkpt lat="42.9433" lon="0.23795">
        <ele>1289</ele>
        <time>2025-04-01T05:16:36Z</time>
      </trkpt>
      <trkpt lat="42.94327" lon="0.23794">
        <ele>1289</ele>
        <time>2025-04-01T05:16:42Z</time>
      </trkpt>
      <trkpt lat="42.94324" lon="0.23791">
        <ele>1289</ele>
        <time>2025-04-01T05:16:48Z</time>
      </trkpt>
      <trkpt lat="42.94321" lon="0.23793">
        <ele>1289</ele>
        <time>2025-04-01T05:16:54Z</time>
      </trkpt>
      <trkpt lat="42.94316" lon="0.23792">
        <ele>1292</ele>
        <time>2025-04-01T05:17:24Z</time>
      </trkpt>
      <trkpt lat="42.94313" lon="0.23791">
        <ele>1292</ele>
        <time>2025-04-01T05:17:30Z</time>
      </trkpt>
      <trkpt lat="42.94309" lon="0.23793">
        <ele>1293</ele>
        <time>2025-04-01T05:17:36Z</time>
      </trkpt>
      <trkpt lat="42.94306" lon="0.23794">
        <ele>1294</ele>
        <time>2025-04-01T05:17:42Z</time>
      </trkpt>
      <trkpt lat="42.94301" lon="0.23794">
        <ele>1296</ele>
        <time>2025-04-01T05:17:50Z</time>
      </trkpt>
      <trkpt lat="42.94297" lon="0.23791">
        <ele>1296</ele>
        <time>2025-04-01T05:17:56Z</time>
      </trkpt>
      <trkpt lat="42.94294" lon="0.23789">
        <ele>1297</ele>
        <time>2025-04-01T05:18:02Z</time>
      </trkpt>
      <trkpt lat="42.9429" lon="0.2379">
        <ele>1299</ele>
        <time>2025-04-01T05:18:10Z</time>
      </trkpt>
      <trkpt lat="42.94286" lon="0.23788">
        <ele>1299</ele>
        <time>2025-04-01T05:18:16Z</time>
      </trkpt>
      <trkpt lat="42.94282" lon="0.23789">
        <ele>1301</ele>
        <time>2025-04-01T05:18:22Z</time>
      </trkpt>
      <trkpt lat="42.94278" lon="0.23787">
        <ele>1301</ele>
        <time>2025-04-01T05:18:30Z</time>
      </trkpt>
      <trkpt lat="42.94274" lon="0.23787">
        <ele>1302</ele>
        <time>2025-04-01T05:18:36Z</time>
      </trkpt>
      <trkpt lat="42.94266" lon="0.23785">
        <ele>1304</ele>
        <time>2025-04-01T05:18:52Z</time>
      </trkpt>
      <trkpt lat="42.9426" lon="0.2379">
        <ele>1306</ele>
        <time>2025-04-01T05:19:04Z</time>
      </trkpt>
      <trkpt lat="42.94255" lon="0.23791">
        <ele>1308</ele>
        <time>2025-04-01T05:19:12Z</time>
      </trkpt>
      <trkpt lat="42.94251" lon="0.23793">
        <ele>1309</ele>
        <time>2025-04-01T05:19:20Z</time>
      </trkpt>
      <trkpt lat="42.94244" lon="0.23797">
        <ele>1311</ele>
        <time>2025-04-01T05:19:34Z</time>
      </trkpt>
      <trkpt lat="42.94241" lon="0.23797">
        <ele>1311</ele>
        <time>2025-04-01T05:19:40Z</time>
      </trkpt>
      <trkpt lat="42.94233" lon="0.23798">
        <ele>1313</ele>
        <time>2025-04-01T05:19:52Z</time>
      </trkpt>
      <trkpt lat="42.94226" lon="0.238">
        <ele>1316</ele>
        <time>2025-04-01T05:20:04Z</time>
      </trkpt>
      <trkpt lat="42.94222" lon="0.23798">
        <ele>1317</ele>
        <time>2025-04-01T05:20:12Z</time>
      </trkpt>
      <trkpt lat="42.94219" lon="0.23796">
        <ele>1319</ele>
        <time>2025-04-01T05:20:18Z</time>
      </trkpt>
      <trkpt lat="42.94215" lon="0.23799">
        <ele>1322</ele>
        <time>2025-04-01T05:20:26Z</time>
      </trkpt>
      <trkpt lat="42.94206" lon="0.23805">
        <ele>1325</ele>
        <time>2025-04-01T05:20:42Z</time>
      </trkpt>
      <trkpt lat="42.94205" lon="0.238">
        <ele>1326</ele>
        <time>2025-04-01T05:20:48Z</time>
      </trkpt>
      <trkpt lat="42.94203" lon="0.23794">
        <ele>1328</ele>
        <time>2025-04-01T05:20:56Z</time>
      </trkpt>
      <trkpt lat="42.94202" lon="0.2378">
        <ele>1328</ele>
        <time>2025-04-01T05:21:12Z</time>
      </trkpt>
      <trkpt lat="42.94199" lon="0.23779">
        <ele>1327</ele>
        <time>2025-04-01T05:21:20Z</time>
      </trkpt>
      <trkpt lat="42.94195" lon="0.23782">
        <ele>1327</ele>
        <time>2025-04-01T05:21:26Z</time>
      </trkpt>
      <trkpt lat="42.94192" lon="0.23784">
        <ele>1328</ele>
        <time>2025-04-01T05:21:32Z</time>
      </trkpt>
      <trkpt lat="42.94191" lon="0.23779">
        <ele>1329</ele>
        <time>2025-04-01T05:21:40Z</time>
      </trkpt>
      <trkpt lat="42.94184" lon="0.23783">
        <ele>1331</ele>
        <time>2025-04-01T05:21:52Z</time>
      </trkpt>
      <trkpt lat="42.94173" lon="0.23792">
        <ele>1336</ele>
        <time>2025-04-01T05:22:10Z</time>
      </trkpt>
      <trkpt lat="42.94166" lon="0.23795">
        <ele>1341</ele>
        <time>2025-04-01T05:22:26Z</time>
      </trkpt>
      <trkpt lat="42.94162" lon="0.23795">
        <ele>1342</ele>
        <time>2025-04-01T05:22:32Z</time>
      </trkpt>
      <trkpt lat="42.94158" lon="0.23794">
        <ele>1344</ele>
        <time>2025-04-01T05:22:40Z</time>
      </trkpt>
      <trkpt lat="42.94155" lon="0.23794">
        <ele>1345</ele>
        <time>2025-04-01T05:22:48Z</time>
      </trkpt>
      <trkpt lat="42.94151" lon="0.23795">
        <ele>1347</ele>
        <time>2025-04-01T05:22:56Z</time>
      </trkpt>
      <trkpt lat="42.94147" lon="0.23796">
        <ele>1348</ele>
        <time>2025-04-01T05:23:02Z</time>
      </trkpt>
      <trkpt lat="42.94138" lon="0.23796">
        <ele>1349</ele>
        <time>2025-04-01T05:23:18Z</time>
      </trkpt>
      <trkpt lat="42.94119" lon="0.23795">
        <ele>1353</ele>
        <time>2025-04-01T05:23:52Z</time>
      </trkpt>
      <trkpt lat="42.94116" lon="0.23796">
        <ele>1354</ele>
        <time>2025-04-01T05:24:24Z</time>
      </trkpt>
      <trkpt lat="42.94112" lon="0.23796">
        <ele>1354</ele>
        <time>2025-04-01T05:24:38Z</time>
      </trkpt>
      <trkpt lat="42.94109" lon="0.23796">
        <ele>1356</ele>
        <time>2025-04-01T05:24:44Z</time>
      </trkpt>
      <trkpt lat="42.94101" lon="0.23793">
        <ele>1359</ele>
        <time>2025-04-01T05:24:58Z</time>
      </trkpt>
      <trkpt lat="42.94088" lon="0.23793">
        <ele>1361</ele>
        <time>2025-04-01T05:25:24Z</time>
      </trkpt>
      <trkpt lat="42.94079" lon="0.2379">
        <ele>1365</ele>
        <time>2025-04-01T05:25:40Z</time>
      </trkpt>
      <trkpt lat="42.9407" lon="0.23786">
        <ele>1367</ele>
        <time>2025-04-01T05:26:00Z</time>
      </trkpt>
      <trkpt lat="42.94064" lon="0.23777">
        <ele>1372</ele>
        <time>2025-04-01T05:26:22Z</time>
      </trkpt>
      <trkpt lat="42.94054" lon="0.23774">
        <ele>1374</ele>
        <time>2025-04-01T05:26:50Z</time>
      </trkpt>
      <trkpt lat="42.94045" lon="0.23772">
        <ele>1379</ele>
        <time>2025-04-01T05:27:10Z</time>
      </trkpt>
      <trkpt lat="42.94042" lon="0.23761">
        <ele>1381</ele>
        <time>2025-04-01T05:27:26Z</time>
      </trkpt>
      <trkpt lat="42.94038" lon="0.23749">
        <ele>1384</ele>
        <time>2025-04-01T05:28:00Z</time>
      </trkpt>
      <trkpt lat="42.94033" lon="0.23738">
        <ele>1386</ele>
        <time>2025-04-01T05:28:24Z</time>
      </trkpt>
      <trkpt lat="42.94028" lon="0.23728">
        <ele>1393</ele>
        <time>2025-04-01T05:28:50Z</time>
      </trkpt>
      <trkpt lat="42.94025" lon="0.23716">
        <ele>1395</ele>
        <time>2025-04-01T05:29:10Z</time>
      </trkpt>
      <trkpt lat="42.94028" lon="0.23705">
        <ele>1397</ele>
        <time>2025-04-01T05:29:24Z</time>
      </trkpt>
      <trkpt lat="42.94036" lon="0.23697">
        <ele>1399</ele>
        <time>2025-04-01T05:29:42Z</time>
      </trkpt>
      <trkpt lat="42.94046" lon="0.23675">
        <ele>1403</ele>
        <time>2025-04-01T05:30:10Z</time>
      </trkpt>
      <trkpt lat="42.94061" lon="0.23659">
        <ele>1405</ele>
        <time>2025-04-01T05:30:34Z</time>
      </trkpt>
      <trkpt lat="42.94064" lon="0.23654">
        <ele>1405</ele>
        <time>2025-04-01T05:30:42Z</time>
      </trkpt>
      <trkpt lat="42.94066" lon="0.23648">
        <ele>1406</ele>
        <time>2025-04-01T05:30:48Z</time>
      </trkpt>
      <trkpt lat="42.94065" lon="0.23643">
        <ele>1407</ele>
        <time>2025-04-01T05:30:56Z</time>
      </trkpt>
      <trkpt lat="42.94066" lon="0.23638">
        <ele>1408</ele>
        <time>2025-04-01T05:31:02Z</time>
      </trkpt>
      <trkpt lat="42.94061" lon="0.23638">
        <ele>1410</ele>
        <time>2025-04-01T05:31:52Z</time>
      </trkpt>
      <trkpt lat="42.94058" lon="0.23637">
        <ele>1412</ele>
        <time>2025-04-01T05:32:00Z</time>
      </trkpt>
      <trkpt lat="42.94054" lon="0.23633">
        <ele>1415</ele>
        <time>2025-04-01T05:32:08Z</time>
      </trkpt>
      <trkpt lat="42.9405" lon="0.23632">
        <ele>1417</ele>
        <time>2025-04-01T05:32:16Z</time>
      </trkpt>
      <trkpt lat="42.94046" lon="0.23635">
        <ele>1419</ele>
        <time>2025-04-01T05:32:24Z</time>
      </trkpt>
      <trkpt lat="42.94043" lon="0.23636">
        <ele>1420</ele>
        <time>2025-04-01T05:32:32Z</time>
      </trkpt>
      <trkpt lat="42.94036" lon="0.23637">
        <ele>1422</ele>
        <time>2025-04-01T05:32:48Z</time>
      </trkpt>
      <trkpt lat="42.94032" lon="0.23639">
        <ele>1424</ele>
        <time>2025-04-01T05:32:54Z</time>
      </trkpt>
      <trkpt lat="42.94031" lon="0.23634">
        <ele>1425</ele>
        <time>2025-04-01T05:33:00Z</time>
      </trkpt>
      <trkpt lat="42.94031" lon="0.23629">
        <ele>1425</ele>
        <time>2025-04-01T05:33:06Z</time>
      </trkpt>
      <trkpt lat="42.9403" lon="0.23623">
        <ele>1426</ele>
        <time>2025-04-01T05:33:14Z</time>
      </trkpt>
      <trkpt lat="42.94031" lon="0.23618">
        <ele>1426</ele>
        <time>2025-04-01T05:33:46Z</time>
      </trkpt>
      <trkpt lat="42.94033" lon="0.23606">
        <ele>1426</ele>
        <time>2025-04-01T05:33:58Z</time>
      </trkpt>
      <trkpt lat="42.94031" lon="0.23602">
        <ele>1426</ele>
        <time>2025-04-01T05:34:06Z</time>
      </trkpt>
      <trkpt lat="42.9403" lon="0.23597">
        <ele>1428</ele>
        <time>2025-04-01T05:34:12Z</time>
      </trkpt>
      <trkpt lat="42.94026" lon="0.23596">
        <ele>1429</ele>
        <time>2025-04-01T05:34:20Z</time>
      </trkpt>
      <trkpt lat="42.94023" lon="0.23593">
        <ele>1431</ele>
        <time>2025-04-01T05:34:28Z</time>
      </trkpt>
      <trkpt lat="42.94019" lon="0.23593">
        <ele>1435</ele>
        <time>2025-04-01T05:35:24Z</time>
      </trkpt>
      <trkpt lat="42.94015" lon="0.23591">
        <ele>1438</ele>
        <time>2025-04-01T05:35:36Z</time>
      </trkpt>
      <trkpt lat="42.94008" lon="0.23583">
        <ele>1441</ele>
        <time>2025-04-01T05:35:56Z</time>
      </trkpt>
      <trkpt lat="42.94005" lon="0.2358">
        <ele>1443</ele>
        <time>2025-04-01T05:36:06Z</time>
      </trkpt>
      <trkpt lat="42.94002" lon="0.23577">
        <ele>1444</ele>
        <time>2025-04-01T05:36:14Z</time>
      </trkpt>
      <trkpt lat="42.94" lon="0.23572">
        <ele>1445</ele>
        <time>2025-04-01T05:36:24Z</time>
      </trkpt>
      <trkpt lat="42.93997" lon="0.23573">
        <ele>1446</ele>
        <time>2025-04-01T05:37:06Z</time>
      </trkpt>
      <trkpt lat="42.93992" lon="0.23566">
        <ele>1448</ele>
        <time>2025-04-01T05:37:22Z</time>
      </trkpt>
      <trkpt lat="42.93989" lon="0.23564">
        <ele>1449</ele>
        <time>2025-04-01T05:38:02Z</time>
      </trkpt>
      <trkpt lat="42.93986" lon="0.23563">
        <ele>1451</ele>
        <time>2025-04-01T05:38:10Z</time>
      </trkpt>
      <trkpt lat="42.93982" lon="0.23562">
        <ele>1452</ele>
        <time>2025-04-01T05:38:18Z</time>
      </trkpt>
      <trkpt lat="42.93981" lon="0.23553">
        <ele>1454</ele>
        <time>2025-04-01T05:38:30Z</time>
      </trkpt>
      <trkpt lat="42.93979" lon="0.23547">
        <ele>1455</ele>
        <time>2025-04-01T05:38:36Z</time>
      </trkpt>
      <trkpt lat="42.93977" lon="0.23543">
        <ele>1457</ele>
        <time>2025-04-01T05:38:44Z</time>
      </trkpt>
      <trkpt lat="42.93973" lon="0.23541">
        <ele>1459</ele>
        <time>2025-04-01T05:38:52Z</time>
      </trkpt>
      <trkpt lat="42.93971" lon="0.23535">
        <ele>1461</ele>
        <time>2025-04-01T05:39:00Z</time>
      </trkpt>
      <trkpt lat="42.93969" lon="0.23531">
        <ele>1463</ele>
        <time>2025-04-01T05:39:08Z</time>
      </trkpt>
      <trkpt lat="42.93967" lon="0.23527">
        <ele>1464</ele>
        <time>2025-04-01T05:39:14Z</time>
      </trkpt>
      <trkpt lat="42.93964" lon="0.23523">
        <ele>1465</ele>
        <time>2025-04-01T05:39:20Z</time>
      </trkpt>
      <trkpt lat="42.9396" lon="0.23521">
        <ele>1466</ele>
        <time>2025-04-01T05:39:28Z</time>
      </trkpt>
      <trkpt lat="42.93958" lon="0.23516">
        <ele>1468</ele>
        <time>2025-04-01T05:39:36Z</time>
      </trkpt>
      <trkpt lat="42.93958" lon="0.23517">
        <ele>1468</ele>
        <time>2025-04-01T05:40:54Z</time>
      </trkpt>
      <trkpt lat="42.93948" lon="0.23515">
        <ele>1468</ele>
        <time>2025-04-01T05:41:14Z</time>
      </trkpt>
      <trkpt lat="42.93946" lon="0.23512">
        <ele>1471</ele>
        <time>2025-04-01T05:41:20Z</time>
      </trkpt>
      <trkpt lat="42.93942" lon="0.23502">
        <ele>1473</ele>
        <time>2025-04-01T05:41:32Z</time>
      </trkpt>
      <trkpt lat="42.93939" lon="0.23501">
        <ele>1473</ele>
        <time>2025-04-01T05:41:38Z</time>
      </trkpt>
      <trkpt lat="42.93938" lon="0.23513">
        <ele>1476</ele>
        <time>2025-04-01T05:42:00Z</time>
      </trkpt>
      <trkpt lat="42.93938" lon="0.23518">
        <ele>1477</ele>
        <time>2025-04-01T05:42:06Z</time>
      </trkpt>
      <trkpt lat="42.93934" lon="0.23518">
        <ele>1477</ele>
        <time>2025-04-01T05:42:14Z</time>
      </trkpt>
      <trkpt lat="42.9393" lon="0.23519">
        <ele>1479</ele>
        <time>2025-04-01T05:42:34Z</time>
      </trkpt>
      <trkpt lat="42.93921" lon="0.23518">
        <ele>1481</ele>
        <time>2025-04-01T05:44:34Z</time>
      </trkpt>
      <trkpt lat="42.93917" lon="0.23518">
        <ele>1483</ele>
        <time>2025-04-01T05:44:42Z</time>
      </trkpt>
      <trkpt lat="42.93913" lon="0.23517">
        <ele>1485</ele>
        <time>2025-04-01T05:44:52Z</time>
      </trkpt>
      <trkpt lat="42.93909" lon="0.23518">
        <ele>1488</ele>
        <time>2025-04-01T05:45:00Z</time>
      </trkpt>
      <trkpt lat="42.93905" lon="0.23516">
        <ele>1489</ele>
        <time>2025-04-01T05:45:10Z</time>
      </trkpt>
      <trkpt lat="42.93902" lon="0.23515">
        <ele>1490</ele>
        <time>2025-04-01T05:45:18Z</time>
      </trkpt>
      <trkpt lat="42.93904" lon="0.23521">
        <ele>1491</ele>
        <time>2025-04-01T05:45:24Z</time>
      </trkpt>
      <trkpt lat="42.93895" lon="0.23519">
        <ele>1493</ele>
        <time>2025-04-01T05:46:46Z</time>
      </trkpt>
      <trkpt lat="42.93886" lon="0.23516">
        <ele>1496</ele>
        <time>2025-04-01T05:47:00Z</time>
      </trkpt>
      <trkpt lat="42.93884" lon="0.23512">
        <ele>1498</ele>
        <time>2025-04-01T05:47:08Z</time>
      </trkpt>
      <trkpt lat="42.9388" lon="0.23513">
        <ele>1499</ele>
        <time>2025-04-01T05:47:16Z</time>
      </trkpt>
      <trkpt lat="42.93873" lon="0.23509">
        <ele>1500</ele>
        <time>2025-04-01T05:47:28Z</time>
      </trkpt>
      <trkpt lat="42.9387" lon="0.23507">
        <ele>1500</ele>
        <time>2025-04-01T05:47:34Z</time>
      </trkpt>
      <trkpt lat="42.93866" lon="0.23504">
        <ele>1502</ele>
        <time>2025-04-01T05:47:42Z</time>
      </trkpt>
      <trkpt lat="42.93856" lon="0.23504">
        <ele>1504</ele>
        <time>2025-04-01T05:50:14Z</time>
      </trkpt>
      <trkpt lat="42.93847" lon="0.23505">
        <ele>1503</ele>
        <time>2025-04-01T05:50:26Z</time>
      </trkpt>
      <trkpt lat="42.93844" lon="0.23502">
        <ele>1503</ele>
        <time>2025-04-01T05:51:38Z</time>
      </trkpt>
      <trkpt lat="42.9384" lon="0.23505">
        <ele>1503</ele>
        <time>2025-04-01T05:51:46Z</time>
      </trkpt>
      <trkpt lat="42.93838" lon="0.2351">
        <ele>1502</ele>
        <time>2025-04-01T05:51:52Z</time>
      </trkpt>
      <trkpt lat="42.93836" lon="0.23514">
        <ele>1502</ele>
        <time>2025-04-01T05:51:56Z</time>
      </trkpt>
      <trkpt lat="42.93819" lon="0.23529">
        <ele>1500</ele>
        <time>2025-04-01T05:52:16Z</time>
      </trkpt>
      <trkpt lat="42.93816" lon="0.23531">
        <ele>1500</ele>
        <time>2025-04-01T05:52:20Z</time>
      </trkpt>
      <trkpt lat="42.93808" lon="0.23538">
        <ele>1501</ele>
        <time>2025-04-01T05:52:30Z</time>
      </trkpt>
      <trkpt lat="42.93792" lon="0.2354">
        <ele>1504</ele>
        <time>2025-04-01T05:52:50Z</time>
      </trkpt>
      <trkpt lat="42.93784" lon="0.23546">
        <ele>1505</ele>
        <time>2025-04-01T05:53:16Z</time>
      </trkpt>
      <trkpt lat="42.93775" lon="0.23548">
        <ele>1508</ele>
        <time>2025-04-01T05:53:34Z</time>
      </trkpt>
      <trkpt lat="42.93766" lon="0.23552">
        <ele>1511</ele>
        <time>2025-04-01T05:53:54Z</time>
      </trkpt>
      <trkpt lat="42.93757" lon="0.23557">
        <ele>1516</ele>
        <time>2025-04-01T05:54:20Z</time>
      </trkpt>
      <trkpt lat="42.9375" lon="0.23566">
        <ele>1518</ele>
        <time>2025-04-01T05:54:46Z</time>
      </trkpt>
      <trkpt lat="42.93742" lon="0.23572">
        <ele>1524</ele>
        <time>2025-04-01T05:55:08Z</time>
      </trkpt>
      <trkpt lat="42.93734" lon="0.23578">
        <ele>1527</ele>
        <time>2025-04-01T05:55:32Z</time>
      </trkpt>
      <trkpt lat="42.93731" lon="0.23581">
        <ele>1530</ele>
        <time>2025-04-01T05:55:42Z</time>
      </trkpt>
      <trkpt lat="42.93725" lon="0.23587">
        <ele>1535</ele>
        <time>2025-04-01T05:56:02Z</time>
      </trkpt>
      <trkpt lat="42.93721" lon="0.23586">
        <ele>1537</ele>
        <time>2025-04-01T05:56:10Z</time>
      </trkpt>
      <trkpt lat="42.93717" lon="0.23585">
        <ele>1539</ele>
        <time>2025-04-01T05:56:18Z</time>
      </trkpt>
      <trkpt lat="42.93714" lon="0.23588">
        <ele>1541</ele>
        <time>2025-04-01T05:56:28Z</time>
      </trkpt>
      <trkpt lat="42.93711" lon="0.2359">
        <ele>1544</ele>
        <time>2025-04-01T05:56:40Z</time>
      </trkpt>
      <trkpt lat="42.93708" lon="0.23593">
        <ele>1545</ele>
        <time>2025-04-01T05:56:50Z</time>
      </trkpt>
      <trkpt lat="42.93706" lon="0.23596">
        <ele>1546</ele>
        <time>2025-04-01T05:57:48Z</time>
      </trkpt>
      <trkpt lat="42.93703" lon="0.23599">
        <ele>1547</ele>
        <time>2025-04-01T05:57:58Z</time>
      </trkpt>
      <trkpt lat="42.93701" lon="0.23603">
        <ele>1549</ele>
        <time>2025-04-01T05:58:06Z</time>
      </trkpt>
      <trkpt lat="42.93697" lon="0.23606">
        <ele>1552</ele>
        <time>2025-04-01T05:58:16Z</time>
      </trkpt>
      <trkpt lat="42.93695" lon="0.2361">
        <ele>1554</ele>
        <time>2025-04-01T05:58:26Z</time>
      </trkpt>
      <trkpt lat="42.93695" lon="0.23616">
        <ele>1555</ele>
        <time>2025-04-01T05:58:34Z</time>
      </trkpt>
      <trkpt lat="42.93693" lon="0.2362">
        <ele>1555</ele>
        <time>2025-04-01T05:58:44Z</time>
      </trkpt>
      <trkpt lat="42.93691" lon="0.23624">
        <ele>1556</ele>
        <time>2025-04-01T05:58:58Z</time>
      </trkpt>
      <trkpt lat="42.93689" lon="0.23628">
        <ele>1558</ele>
        <time>2025-04-01T05:59:06Z</time>
      </trkpt>
      <trkpt lat="42.93685" lon="0.23631">
        <ele>1560</ele>
        <time>2025-04-01T05:59:16Z</time>
      </trkpt>
      <trkpt lat="42.93678" lon="0.23639">
        <ele>1562</ele>
        <time>2025-04-01T05:59:46Z</time>
      </trkpt>
      <trkpt lat="42.93675" lon="0.23637">
        <ele>1566</ele>
        <time>2025-04-01T05:59:54Z</time>
      </trkpt>
      <trkpt lat="42.93671" lon="0.23637">
        <ele>1567</ele>
        <time>2025-04-01T06:00:06Z</time>
      </trkpt>
      <trkpt lat="42.93667" lon="0.23635">
        <ele>1570</ele>
        <time>2025-04-01T06:01:08Z</time>
      </trkpt>
      <trkpt lat="42.9366" lon="0.23631">
        <ele>1573</ele>
        <time>2025-04-01T06:01:24Z</time>
      </trkpt>
      <trkpt lat="42.93658" lon="0.23636">
        <ele>1573</ele>
        <time>2025-04-01T06:01:30Z</time>
      </trkpt>
      <trkpt lat="42.93655" lon="0.23635">
        <ele>1575</ele>
        <time>2025-04-01T06:01:38Z</time>
      </trkpt>
      <trkpt lat="42.93651" lon="0.23634">
        <ele>1577</ele>
        <time>2025-04-01T06:01:46Z</time>
      </trkpt>
      <trkpt lat="42.93648" lon="0.23629">
        <ele>1578</ele>
        <time>2025-04-01T06:01:54Z</time>
      </trkpt>
      <trkpt lat="42.93646" lon="0.23633">
        <ele>1579</ele>
        <time>2025-04-01T06:02:04Z</time>
      </trkpt>
      <trkpt lat="42.93637" lon="0.23632">
        <ele>1582</ele>
        <time>2025-04-01T06:02:34Z</time>
      </trkpt>
      <trkpt lat="42.93634" lon="0.2363">
        <ele>1587</ele>
        <time>2025-04-01T06:02:42Z</time>
      </trkpt>
      <trkpt lat="42.9363" lon="0.23628">
        <ele>1589</ele>
        <time>2025-04-01T06:03:44Z</time>
      </trkpt>
      <trkpt lat="42.93627" lon="0.23625">
        <ele>1591</ele>
        <time>2025-04-01T06:03:52Z</time>
      </trkpt>
      <trkpt lat="42.93621" lon="0.23619">
        <ele>1592</ele>
        <time>2025-04-01T06:04:06Z</time>
      </trkpt>
      <trkpt lat="42.93618" lon="0.23621">
        <ele>1593</ele>
        <time>2025-04-01T06:04:16Z</time>
      </trkpt>
      <trkpt lat="42.93616" lon="0.23626">
        <ele>1594</ele>
        <time>2025-04-01T06:04:24Z</time>
      </trkpt>
      <trkpt lat="42.9361" lon="0.23633">
        <ele>1595</ele>
        <time>2025-04-01T06:04:38Z</time>
      </trkpt>
      <trkpt lat="42.93607" lon="0.23636">
        <ele>1595</ele>
        <time>2025-04-01T06:04:50Z</time>
      </trkpt>
      <trkpt lat="42.93604" lon="0.2364">
        <ele>1597</ele>
        <time>2025-04-01T06:06:30Z</time>
      </trkpt>
      <trkpt lat="42.93594" lon="0.23651">
        <ele>1599</ele>
        <time>2025-04-01T06:06:48Z</time>
      </trkpt>
      <trkpt lat="42.93593" lon="0.23656">
        <ele>1602</ele>
        <time>2025-04-01T06:07:53Z</time>
      </trkpt>
      <trkpt lat="42.93591" lon="0.23651">
        <ele>1602</ele>
        <time>2025-04-01T06:08:55Z</time>
      </trkpt>
      <trkpt lat="42.93587" lon="0.23651">
        <ele>1603</ele>
        <time>2025-04-01T06:09:03Z</time>
      </trkpt>
      <trkpt lat="42.93586" lon="0.23648">
        <ele>1604</ele>
        <time>2025-04-01T06:09:35Z</time>
      </trkpt>
      <trkpt lat="42.93588" lon="0.23644">
        <ele>1604</ele>
        <time>2025-04-01T06:09:57Z</time>
      </trkpt>
      <trkpt lat="42.93587" lon="0.23639">
        <ele>1603</ele>
        <time>2025-04-01T06:10:03Z</time>
      </trkpt>
      <trkpt lat="42.93579" lon="0.23632">
        <ele>1605</ele>
        <time>2025-04-01T06:10:15Z</time>
      </trkpt>
      <trkpt lat="42.93578" lon="0.23627">
        <ele>1606</ele>
        <time>2025-04-01T06:10:21Z</time>
      </trkpt>
      <trkpt lat="42.93575" lon="0.23625">
        <ele>1606</ele>
        <time>2025-04-01T06:10:25Z</time>
      </trkpt>
      <trkpt lat="42.93573" lon="0.2362">
        <ele>1606</ele>
        <time>2025-04-01T06:10:33Z</time>
      </trkpt>
      <trkpt lat="42.93575" lon="0.23615">
        <ele>1607</ele>
        <time>2025-04-01T06:10:39Z</time>
      </trkpt>
      <trkpt lat="42.93571" lon="0.23613">
        <ele>1609</ele>
        <time>2025-04-01T06:10:51Z</time>
      </trkpt>
      <trkpt lat="42.93567" lon="0.23612">
        <ele>1610</ele>
        <time>2025-04-01T06:10:57Z</time>
      </trkpt>
      <trkpt lat="42.93567" lon="0.23607">
        <ele>1612</ele>
        <time>2025-04-01T06:11:05Z</time>
      </trkpt>
      <trkpt lat="42.93564" lon="0.23602">
        <ele>1613</ele>
        <time>2025-04-01T06:11:13Z</time>
      </trkpt>
      <trkpt lat="42.93562" lon="0.23598">
        <ele>1614</ele>
        <time>2025-04-01T06:11:19Z</time>
      </trkpt>
      <trkpt lat="42.9356" lon="0.23594">
        <ele>1615</ele>
        <time>2025-04-01T06:11:25Z</time>
      </trkpt>
      <trkpt lat="42.9356" lon="0.23588">
        <ele>1616</ele>
        <time>2025-04-01T06:11:31Z</time>
      </trkpt>
      <trkpt lat="42.93558" lon="0.23583">
        <ele>1618</ele>
        <time>2025-04-01T06:11:39Z</time>
      </trkpt>
      <trkpt lat="42.93555" lon="0.2358">
        <ele>1619</ele>
        <time>2025-04-01T06:11:45Z</time>
      </trkpt>
      <trkpt lat="42.93552" lon="0.23577">
        <ele>1620</ele>
        <time>2025-04-01T06:11:51Z</time>
      </trkpt>
      <trkpt lat="42.93545" lon="0.23568">
        <ele>1623</ele>
        <time>2025-04-01T06:12:11Z</time>
      </trkpt>
      <trkpt lat="42.93542" lon="0.23565">
        <ele>1625</ele>
        <time>2025-04-01T06:12:19Z</time>
      </trkpt>
      <trkpt lat="42.9354" lon="0.2356">
        <ele>1626</ele>
        <time>2025-04-01T06:12:29Z</time>
      </trkpt>
      <trkpt lat="42.93541" lon="0.23555">
        <ele>1629</ele>
        <time>2025-04-01T06:12:37Z</time>
      </trkpt>
      <trkpt lat="42.93542" lon="0.2355">
        <ele>1630</ele>
        <time>2025-04-01T06:12:47Z</time>
      </trkpt>
      <trkpt lat="42.93546" lon="0.23548">
        <ele>1631</ele>
        <time>2025-04-01T06:12:53Z</time>
      </trkpt>
      <trkpt lat="42.93547" lon="0.23543">
        <ele>1633</ele>
        <time>2025-04-01T06:13:53Z</time>
      </trkpt>
      <trkpt lat="42.93532" lon="0.23529">
        <ele>1637</ele>
        <time>2025-04-01T06:14:29Z</time>
      </trkpt>
      <trkpt lat="42.93524" lon="0.23521">
        <ele>1641</ele>
        <time>2025-04-01T06:14:49Z</time>
      </trkpt>
      <trkpt lat="42.93515" lon="0.23517">
        <ele>1643</ele>
        <time>2025-04-01T06:15:09Z</time>
      </trkpt>
      <trkpt lat="42.93515" lon="0.23503">
        <ele>1648</ele>
        <time>2025-04-01T06:15:29Z</time>
      </trkpt>
      <trkpt lat="42.93512" lon="0.23502">
        <ele>1649</ele>
        <time>2025-04-01T06:15:39Z</time>
      </trkpt>
      <trkpt lat="42.93508" lon="0.235">
        <ele>1651</ele>
        <time>2025-04-01T06:15:47Z</time>
      </trkpt>
      <trkpt lat="42.93507" lon="0.23495">
        <ele>1652</ele>
        <time>2025-04-01T06:15:53Z</time>
      </trkpt>
      <trkpt lat="42.93508" lon="0.2349">
        <ele>1653</ele>
        <time>2025-04-01T06:15:59Z</time>
      </trkpt>
      <trkpt lat="42.93507" lon="0.23485">
        <ele>1654</ele>
        <time>2025-04-01T06:16:05Z</time>
      </trkpt>
      <trkpt lat="42.93498" lon="0.23486">
        <ele>1654</ele>
        <time>2025-04-01T06:18:23Z</time>
      </trkpt>
      <trkpt lat="42.93488" lon="0.23486">
        <ele>1655</ele>
        <time>2025-04-01T06:18:41Z</time>
      </trkpt>
      <trkpt lat="42.9348" lon="0.23483">
        <ele>1657</ele>
        <time>2025-04-01T06:18:55Z</time>
      </trkpt>
      <trkpt lat="42.93474" lon="0.23473">
        <ele>1661</ele>
        <time>2025-04-01T06:19:13Z</time>
      </trkpt>
      <trkpt lat="42.93466" lon="0.23467">
        <ele>1665</ele>
        <time>2025-04-01T06:19:31Z</time>
      </trkpt>
      <trkpt lat="42.9346" lon="0.23458">
        <ele>1667</ele>
        <time>2025-04-01T06:19:51Z</time>
      </trkpt>
      <trkpt lat="42.93452" lon="0.23451">
        <ele>1669</ele>
        <time>2025-04-01T06:21:09Z</time>
      </trkpt>
      <trkpt lat="42.93444" lon="0.23445">
        <ele>1674</ele>
        <time>2025-04-01T06:21:31Z</time>
      </trkpt>
      <trkpt lat="42.93438" lon="0.23436">
        <ele>1678</ele>
        <time>2025-04-01T06:22:01Z</time>
      </trkpt>
      <trkpt lat="42.93429" lon="0.23438">
        <ele>1680</ele>
        <time>2025-04-01T06:22:33Z</time>
      </trkpt>
      <trkpt lat="42.93424" lon="0.23449">
        <ele>1687</ele>
        <time>2025-04-01T06:23:01Z</time>
      </trkpt>
      <trkpt lat="42.93418" lon="0.2344">
        <ele>1690</ele>
        <time>2025-04-01T06:24:15Z</time>
      </trkpt>
      <trkpt lat="42.93409" lon="0.23433">
        <ele>1691</ele>
        <time>2025-04-01T06:24:33Z</time>
      </trkpt>
      <trkpt lat="42.93409" lon="0.23421">
        <ele>1697</ele>
        <time>2025-04-01T06:24:53Z</time>
      </trkpt>
      <trkpt lat="42.93407" lon="0.23416">
        <ele>1700</ele>
        <time>2025-04-01T06:27:22Z</time>
      </trkpt>
      <trkpt lat="42.93404" lon="0.23413">
        <ele>1700</ele>
        <time>2025-04-01T06:27:34Z</time>
      </trkpt>
      <trkpt lat="42.93401" lon="0.23415">
        <ele>1704</ele>
        <time>2025-04-01T06:27:44Z</time>
      </trkpt>
      <trkpt lat="42.93398" lon="0.23417">
        <ele>1705</ele>
        <time>2025-04-01T06:27:48Z</time>
      </trkpt>
      <trkpt lat="42.93397" lon="0.23413">
        <ele>1705</ele>
        <time>2025-04-01T06:27:54Z</time>
      </trkpt>
      <trkpt lat="42.93394" lon="0.23408">
        <ele>1706</ele>
        <time>2025-04-01T06:28:00Z</time>
      </trkpt>
      <trkpt lat="42.93392" lon="0.23404">
        <ele>1707</ele>
        <time>2025-04-01T06:28:06Z</time>
      </trkpt>
      <trkpt lat="42.93389" lon="0.23401">
        <ele>1708</ele>
        <time>2025-04-01T06:28:14Z</time>
      </trkpt>
      <trkpt lat="42.93386" lon="0.23398">
        <ele>1711</ele>
        <time>2025-04-01T06:28:22Z</time>
      </trkpt>
      <trkpt lat="42.93389" lon="0.23386">
        <ele>1715</ele>
        <time>2025-04-01T06:29:34Z</time>
      </trkpt>
      <trkpt lat="42.93385" lon="0.23376">
        <ele>1718</ele>
        <time>2025-04-01T06:30:36Z</time>
      </trkpt>
      <trkpt lat="42.93382" lon="0.23364">
        <ele>1724</ele>
        <time>2025-04-01T06:34:00Z</time>
      </trkpt>
      <trkpt lat="42.93379" lon="0.23366">
        <ele>1731</ele>
        <time>2025-04-01T06:38:36Z</time>
      </trkpt>
      <trkpt lat="42.93374" lon="0.23365">
        <ele>1731</ele>
        <time>2025-04-01T06:38:42Z</time>
      </trkpt>
      <trkpt lat="42.93363" lon="0.23364">
        <ele>1727</ele>
        <time>2025-04-01T06:38:54Z</time>
      </trkpt>
      <trkpt lat="42.93359" lon="0.23362">
        <ele>1727</ele>
        <time>2025-04-01T06:38:58Z</time>
      </trkpt>
      <trkpt lat="42.93355" lon="0.23362">
        <ele>1728</ele>
        <time>2025-04-01T06:39:02Z</time>
      </trkpt>
      <trkpt lat="42.93352" lon="0.2336">
        <ele>1729</ele>
        <time>2025-04-01T06:39:08Z</time>
      </trkpt>
      <trkpt lat="42.93347" lon="0.23357">
        <ele>1729</ele>
        <time>2025-04-01T06:39:14Z</time>
      </trkpt>
      <trkpt lat="42.93343" lon="0.23356">
        <ele>1731</ele>
        <time>2025-04-01T06:39:20Z</time>
      </trkpt>
      <trkpt lat="42.93333" lon="0.23351">
        <ele>1733</ele>
        <time>2025-04-01T06:39:36Z</time>
      </trkpt>
      <trkpt lat="42.93324" lon="0.23349">
        <ele>1737</ele>
        <time>2025-04-01T06:39:48Z</time>
      </trkpt>
      <trkpt lat="42.93304" lon="0.23344">
        <ele>1739</ele>
        <time>2025-04-01T06:40:14Z</time>
      </trkpt>
      <trkpt lat="42.93296" lon="0.23342">
        <ele>1740</ele>
        <time>2025-04-01T06:40:28Z</time>
      </trkpt>
      <trkpt lat="42.93287" lon="0.23339">
        <ele>1744</ele>
        <time>2025-04-01T06:40:50Z</time>
      </trkpt>
      <trkpt lat="42.93282" lon="0.23335">
        <ele>1746</ele>
        <time>2025-04-01T06:41:42Z</time>
      </trkpt>
      <trkpt lat="42.93279" lon="0.23331">
        <ele>1746</ele>
        <time>2025-04-01T06:41:48Z</time>
      </trkpt>
      <trkpt lat="42.93278" lon="0.23326">
        <ele>1747</ele>
        <time>2025-04-01T06:41:54Z</time>
      </trkpt>
      <trkpt lat="42.93275" lon="0.23323">
        <ele>1748</ele>
        <time>2025-04-01T06:41:58Z</time>
      </trkpt>
      <trkpt lat="42.93272" lon="0.23319">
        <ele>1748</ele>
        <time>2025-04-01T06:42:04Z</time>
      </trkpt>
      <trkpt lat="42.93268" lon="0.2331">
        <ele>1749</ele>
        <time>2025-04-01T06:42:14Z</time>
      </trkpt>
      <trkpt lat="42.93266" lon="0.23304">
        <ele>1750</ele>
        <time>2025-04-01T06:42:20Z</time>
      </trkpt>
      <trkpt lat="42.93263" lon="0.23301">
        <ele>1750</ele>
        <time>2025-04-01T06:42:26Z</time>
      </trkpt>
      <trkpt lat="42.9326" lon="0.23296">
        <ele>1750</ele>
        <time>2025-04-01T06:42:32Z</time>
      </trkpt>
      <trkpt lat="42.93252" lon="0.23289">
        <ele>1749</ele>
        <time>2025-04-01T06:42:44Z</time>
      </trkpt>
      <trkpt lat="42.93239" lon="0.23264">
        <ele>1751</ele>
        <time>2025-04-01T06:46:20Z</time>
      </trkpt>
      <trkpt lat="42.93236" lon="0.2326">
        <ele>1751</ele>
        <time>2025-04-01T06:46:24Z</time>
      </trkpt>
      <trkpt lat="42.93234" lon="0.23255">
        <ele>1752</ele>
        <time>2025-04-01T06:46:28Z</time>
      </trkpt>
      <trkpt lat="42.9323" lon="0.23245">
        <ele>1753</ele>
        <time>2025-04-01T06:47:04Z</time>
      </trkpt>
      <trkpt lat="42.9323" lon="0.23239">
        <ele>1754</ele>
        <time>2025-04-01T06:47:14Z</time>
      </trkpt>
      <trkpt lat="42.93228" lon="0.23233">
        <ele>1754</ele>
        <time>2025-04-01T06:47:18Z</time>
      </trkpt>
      <trkpt lat="42.93226" lon="0.23227">
        <ele>1755</ele>
        <time>2025-04-01T06:47:22Z</time>
      </trkpt>
      <trkpt lat="42.93223" lon="0.23223">
        <ele>1756</ele>
        <time>2025-04-01T06:47:26Z</time>
      </trkpt>
      <trkpt lat="42.93216" lon="0.23219">
        <ele>1756</ele>
        <time>2025-04-01T06:47:34Z</time>
      </trkpt>
      <trkpt lat="42.93215" lon="0.23214">
        <ele>1757</ele>
        <time>2025-04-01T06:47:40Z</time>
      </trkpt>
      <trkpt lat="42.93211" lon="0.23211">
        <ele>1758</ele>
        <time>2025-04-01T06:49:02Z</time>
      </trkpt>
      <trkpt lat="42.93207" lon="0.23211">
        <ele>1758</ele>
        <time>2025-04-01T06:49:06Z</time>
      </trkpt>
      <trkpt lat="42.93204" lon="0.23211">
        <ele>1758</ele>
        <time>2025-04-01T06:49:10Z</time>
      </trkpt>
      <trkpt lat="42.93199" lon="0.23208">
        <ele>1759</ele>
        <time>2025-04-01T06:49:16Z</time>
      </trkpt>
      <trkpt lat="42.93196" lon="0.23208">
        <ele>1759</ele>
        <time>2025-04-01T06:49:20Z</time>
      </trkpt>
      <trkpt lat="42.93192" lon="0.23208">
        <ele>1759</ele>
        <time>2025-04-01T06:49:26Z</time>
      </trkpt>
      <trkpt lat="42.93185" lon="0.23202">
        <ele>1760</ele>
        <time>2025-04-01T06:49:34Z</time>
      </trkpt>
      <trkpt lat="42.93181" lon="0.23202">
        <ele>1761</ele>
        <time>2025-04-01T06:49:38Z</time>
      </trkpt>
      <trkpt lat="42.93171" lon="0.23194">
        <ele>1764</ele>
        <time>2025-04-01T06:49:54Z</time>
      </trkpt>
      <trkpt lat="42.93168" lon="0.23191">
        <ele>1765</ele>
        <time>2025-04-01T06:50:00Z</time>
      </trkpt>
      <trkpt lat="42.93161" lon="0.23186">
        <ele>1762</ele>
        <time>2025-04-01T06:56:32Z</time>
      </trkpt>
      <trkpt lat="42.93153" lon="0.23182">
        <ele>1762</ele>
        <time>2025-04-01T06:56:44Z</time>
      </trkpt>
      <trkpt lat="42.93143" lon="0.23181">
        <ele>1767</ele>
        <time>2025-04-01T06:56:58Z</time>
      </trkpt>
      <trkpt lat="42.93134" lon="0.23173">
        <ele>1768</ele>
        <time>2025-04-01T06:57:12Z</time>
      </trkpt>
      <trkpt lat="42.93127" lon="0.23167">
        <ele>1771</ele>
        <time>2025-04-01T06:57:22Z</time>
      </trkpt>
      <trkpt lat="42.93119" lon="0.23158">
        <ele>1773</ele>
        <time>2025-04-01T06:57:38Z</time>
      </trkpt>
      <trkpt lat="42.93104" lon="0.23145">
        <ele>1780</ele>
        <time>2025-04-01T06:58:06Z</time>
      </trkpt>
      <trkpt lat="42.93089" lon="0.2313">
        <ele>1782</ele>
        <time>2025-04-01T06:58:34Z</time>
      </trkpt>
      <trkpt lat="42.93073" lon="0.23115">
        <ele>1786</ele>
        <time>2025-04-01T06:59:02Z</time>
      </trkpt>
      <trkpt lat="42.93066" lon="0.23107">
        <ele>1788</ele>
        <time>2025-04-01T06:59:16Z</time>
      </trkpt>
      <trkpt lat="42.93058" lon="0.231">
        <ele>1790</ele>
        <time>2025-04-01T06:59:44Z</time>
      </trkpt>
      <trkpt lat="42.9305" lon="0.23092">
        <ele>1792</ele>
        <time>2025-04-01T07:00:08Z</time>
      </trkpt>
      <trkpt lat="42.93042" lon="0.23085">
        <ele>1794</ele>
        <time>2025-04-01T07:00:22Z</time>
      </trkpt>
      <trkpt lat="42.93035" lon="0.23075">
        <ele>1797</ele>
        <time>2025-04-01T07:00:38Z</time>
      </trkpt>
      <trkpt lat="42.93028" lon="0.23065">
        <ele>1799</ele>
        <time>2025-04-01T07:00:52Z</time>
      </trkpt>
      <trkpt lat="42.9302" lon="0.23058">
        <ele>1802</ele>
        <time>2025-04-01T07:01:08Z</time>
      </trkpt>
      <trkpt lat="42.93018" lon="0.23045">
        <ele>1805</ele>
        <time>2025-04-01T07:01:22Z</time>
      </trkpt>
      <trkpt lat="42.93015" lon="0.23033">
        <ele>1807</ele>
        <time>2025-04-01T07:01:36Z</time>
      </trkpt>
      <trkpt lat="42.93008" lon="0.23024">
        <ele>1809</ele>
        <time>2025-04-01T07:01:48Z</time>
      </trkpt>
      <trkpt lat="42.93" lon="0.23016">
        <ele>1811</ele>
        <time>2025-04-01T07:02:04Z</time>
      </trkpt>
      <trkpt lat="42.92998" lon="0.23003">
        <ele>1816</ele>
        <time>2025-04-01T07:02:26Z</time>
      </trkpt>
      <trkpt lat="42.92992" lon="0.22994">
        <ele>1818</ele>
        <time>2025-04-01T07:03:34Z</time>
      </trkpt>
      <trkpt lat="42.92986" lon="0.22983">
        <ele>1820</ele>
        <time>2025-04-01T07:03:52Z</time>
      </trkpt>
      <trkpt lat="42.92979" lon="0.22975">
        <ele>1824</ele>
        <time>2025-04-01T07:04:08Z</time>
      </trkpt>
      <trkpt lat="42.92971" lon="0.22967">
        <ele>1827</ele>
        <time>2025-04-01T07:04:24Z</time>
      </trkpt>
      <trkpt lat="42.92965" lon="0.22957">
        <ele>1827</ele>
        <time>2025-04-01T07:04:36Z</time>
      </trkpt>
      <trkpt lat="42.92957" lon="0.22948">
        <ele>1828</ele>
        <time>2025-04-01T07:04:48Z</time>
      </trkpt>
      <trkpt lat="42.92953" lon="0.22935">
        <ele>1828</ele>
        <time>2025-04-01T07:05:00Z</time>
      </trkpt>
      <trkpt lat="42.92953" lon="0.22926">
        <ele>1829</ele>
        <time>2025-04-01T07:05:58Z</time>
      </trkpt>
      <trkpt lat="42.92952" lon="0.22919">
        <ele>1830</ele>
        <time>2025-04-01T07:07:24Z</time>
      </trkpt>
      <trkpt lat="42.92951" lon="0.22909">
        <ele>1829</ele>
        <time>2025-04-01T07:07:32Z</time>
      </trkpt>
      <trkpt lat="42.9295" lon="0.22904">
        <ele>1828</ele>
        <time>2025-04-01T07:07:36Z</time>
      </trkpt>
      <trkpt lat="42.92948" lon="0.22897">
        <ele>1828</ele>
        <time>2025-04-01T07:07:40Z</time>
      </trkpt>
      <trkpt lat="42.92949" lon="0.22891">
        <ele>1827</ele>
        <time>2025-04-01T07:07:44Z</time>
      </trkpt>
      <trkpt lat="42.92949" lon="0.22886">
        <ele>1827</ele>
        <time>2025-04-01T07:07:48Z</time>
      </trkpt>
      <trkpt lat="42.92946" lon="0.22877">
        <ele>1828</ele>
        <time>2025-04-01T07:07:56Z</time>
      </trkpt>
      <trkpt lat="42.92942" lon="0.22866">
        <ele>1828</ele>
        <time>2025-04-01T07:08:06Z</time>
      </trkpt>
      <trkpt lat="42.92939" lon="0.22862">
        <ele>1828</ele>
        <time>2025-04-01T07:08:10Z</time>
      </trkpt>
      <trkpt lat="42.92934" lon="0.2286">
        <ele>1829</ele>
        <time>2025-04-01T07:08:14Z</time>
      </trkpt>
      <trkpt lat="42.92926" lon="0.22846">
        <ele>1830</ele>
        <time>2025-04-01T07:08:30Z</time>
      </trkpt>
      <trkpt lat="42.92905" lon="0.22818">
        <ele>1834</ele>
        <time>2025-04-01T07:09:06Z</time>
      </trkpt>
      <trkpt lat="42.92898" lon="0.2281">
        <ele>1835</ele>
        <time>2025-04-01T07:09:20Z</time>
      </trkpt>
      <trkpt lat="42.92893" lon="0.228">
        <ele>1837</ele>
        <time>2025-04-01T07:09:32Z</time>
      </trkpt>
      <trkpt lat="42.92884" lon="0.22795">
        <ele>1839</ele>
        <time>2025-04-01T07:09:44Z</time>
      </trkpt>
      <trkpt lat="42.92878" lon="0.22785">
        <ele>1840</ele>
        <time>2025-04-01T07:09:58Z</time>
      </trkpt>
      <trkpt lat="42.92873" lon="0.22773">
        <ele>1841</ele>
        <time>2025-04-01T07:10:10Z</time>
      </trkpt>
      <trkpt lat="42.92865" lon="0.22765">
        <ele>1844</ele>
        <time>2025-04-01T07:10:24Z</time>
      </trkpt>
      <trkpt lat="42.92858" lon="0.22755">
        <ele>1847</ele>
        <time>2025-04-01T07:10:38Z</time>
      </trkpt>
      <trkpt lat="42.92853" lon="0.22745">
        <ele>1850</ele>
        <time>2025-04-01T07:10:54Z</time>
      </trkpt>
      <trkpt lat="42.92846" lon="0.22736">
        <ele>1853</ele>
        <time>2025-04-01T07:11:24Z</time>
      </trkpt>
      <trkpt lat="42.92844" lon="0.2273">
        <ele>1855</ele>
        <time>2025-04-01T07:11:56Z</time>
      </trkpt>
      <trkpt lat="42.9284" lon="0.22729">
        <ele>1855</ele>
        <time>2025-04-01T07:12:32Z</time>
      </trkpt>
      <trkpt lat="42.92838" lon="0.22725">
        <ele>1855</ele>
        <time>2025-04-01T07:12:40Z</time>
      </trkpt>
      <trkpt lat="42.92833" lon="0.22725">
        <ele>1857</ele>
        <time>2025-04-01T07:12:48Z</time>
      </trkpt>
      <trkpt lat="42.92831" lon="0.2272">
        <ele>1859</ele>
        <time>2025-04-01T07:13:00Z</time>
      </trkpt>
      <trkpt lat="42.92828" lon="0.22717">
        <ele>1862</ele>
        <time>2025-04-01T07:13:12Z</time>
      </trkpt>
      <trkpt lat="42.92826" lon="0.22713">
        <ele>1864</ele>
        <time>2025-04-01T07:13:22Z</time>
      </trkpt>
      <trkpt lat="42.92819" lon="0.22705">
        <ele>1867</ele>
        <time>2025-04-01T07:13:54Z</time>
      </trkpt>
      <trkpt lat="42.92815" lon="0.22694">
        <ele>1872</ele>
        <time>2025-04-01T07:14:58Z</time>
      </trkpt>
      <trkpt lat="42.9281" lon="0.22684">
        <ele>1873</ele>
        <time>2025-04-01T07:15:20Z</time>
      </trkpt>
      <trkpt lat="42.92801" lon="0.22686">
        <ele>1878</ele>
        <time>2025-04-01T07:15:34Z</time>
      </trkpt>
      <trkpt lat="42.92792" lon="0.22683">
        <ele>1880</ele>
        <time>2025-04-01T07:15:54Z</time>
      </trkpt>
      <trkpt lat="42.92792" lon="0.22671">
        <ele>1883</ele>
        <time>2025-04-01T07:16:22Z</time>
      </trkpt>
      <trkpt lat="42.92789" lon="0.22658">
        <ele>1890</ele>
        <time>2025-04-01T07:17:22Z</time>
      </trkpt>
      <trkpt lat="42.9279" lon="0.22645">
        <ele>1892</ele>
        <time>2025-04-01T07:17:40Z</time>
      </trkpt>
      <trkpt lat="42.92782" lon="0.22637">
        <ele>1899</ele>
        <time>2025-04-01T07:18:36Z</time>
      </trkpt>
      <trkpt lat="42.92789" lon="0.22628">
        <ele>1900</ele>
        <time>2025-04-01T07:18:52Z</time>
      </trkpt>
      <trkpt lat="42.92783" lon="0.22619">
        <ele>1901</ele>
        <time>2025-04-01T07:19:48Z</time>
      </trkpt>
      <trkpt lat="42.92782" lon="0.22607">
        <ele>1905</ele>
        <time>2025-04-01T07:20:04Z</time>
      </trkpt>
      <trkpt lat="42.92785" lon="0.22589">
        <ele>1909</ele>
        <time>2025-04-01T07:20:22Z</time>
      </trkpt>
      <trkpt lat="42.92784" lon="0.22584">
        <ele>1909</ele>
        <time>2025-04-01T07:20:26Z</time>
      </trkpt>
      <trkpt lat="42.92786" lon="0.22578">
        <ele>1910</ele>
        <time>2025-04-01T07:20:32Z</time>
      </trkpt>
      <trkpt lat="42.92786" lon="0.22573">
        <ele>1912</ele>
        <time>2025-04-01T07:20:36Z</time>
      </trkpt>
      <trkpt lat="42.92787" lon="0.22568">
        <ele>1913</ele>
        <time>2025-04-01T07:20:42Z</time>
      </trkpt>
      <trkpt lat="42.9279" lon="0.22565">
        <ele>1913</ele>
        <time>2025-04-01T07:20:48Z</time>
      </trkpt>
      <trkpt lat="42.92791" lon="0.22551">
        <ele>1914</ele>
        <time>2025-04-01T07:21:30Z</time>
      </trkpt>
      <trkpt lat="42.9279" lon="0.22541">
        <ele>1915</ele>
        <time>2025-04-01T07:21:57Z</time>
      </trkpt>
      <trkpt lat="42.92787" lon="0.22537">
        <ele>1916</ele>
        <time>2025-04-01T07:23:48Z</time>
      </trkpt>
      <trkpt lat="42.92777" lon="0.22521">
        <ele>1914</ele>
        <time>2025-04-01T07:24:06Z</time>
      </trkpt>
      <trkpt lat="42.92776" lon="0.22516">
        <ele>1913</ele>
        <time>2025-04-01T07:24:10Z</time>
      </trkpt>
      <trkpt lat="42.92774" lon="0.22503">
        <ele>1912</ele>
        <time>2025-04-01T07:24:52Z</time>
      </trkpt>
      <trkpt lat="42.92772" lon="0.22489">
        <ele>1914</ele>
        <time>2025-04-01T07:25:04Z</time>
      </trkpt>
      <trkpt lat="42.92779" lon="0.22481">
        <ele>1915</ele>
        <time>2025-04-01T07:25:16Z</time>
      </trkpt>
      <trkpt lat="42.92777" lon="0.22468">
        <ele>1917</ele>
        <time>2025-04-01T07:26:46Z</time>
      </trkpt>
      <trkpt lat="42.92774" lon="0.22455">
        <ele>1918</ele>
        <time>2025-04-01T07:26:56Z</time>
      </trkpt>
      <trkpt lat="42.92766" lon="0.2243">
        <ele>1917</ele>
        <time>2025-04-01T07:27:16Z</time>
      </trkpt>
      <trkpt lat="42.92765" lon="0.22426">
        <ele>1917</ele>
        <time>2025-04-01T07:27:22Z</time>
      </trkpt>
      <trkpt lat="42.92764" lon="0.22419">
        <ele>1917</ele>
        <time>2025-04-01T07:28:08Z</time>
      </trkpt>
      <trkpt lat="42.92763" lon="0.22413">
        <ele>1916</ele>
        <time>2025-04-01T07:28:12Z</time>
      </trkpt>
      <trkpt lat="42.92763" lon="0.22408">
        <ele>1916</ele>
        <time>2025-04-01T07:28:16Z</time>
      </trkpt>
      <trkpt lat="42.92766" lon="0.22404">
        <ele>1917</ele>
        <time>2025-04-01T07:28:20Z</time>
      </trkpt>
      <trkpt lat="42.92767" lon="0.22398">
        <ele>1916</ele>
        <time>2025-04-01T07:28:26Z</time>
      </trkpt>
      <trkpt lat="42.92765" lon="0.22393">
        <ele>1916</ele>
        <time>2025-04-01T07:28:30Z</time>
      </trkpt>
      <trkpt lat="42.92765" lon="0.22387">
        <ele>1916</ele>
        <time>2025-04-01T07:28:34Z</time>
      </trkpt>
      <trkpt lat="42.92769" lon="0.2237">
        <ele>1916</ele>
        <time>2025-04-01T07:28:46Z</time>
      </trkpt>
      <trkpt lat="42.92769" lon="0.22364">
        <ele>1916</ele>
        <time>2025-04-01T07:28:50Z</time>
      </trkpt>
      <trkpt lat="42.92779" lon="0.22345">
        <ele>1915</ele>
        <time>2025-04-01T07:29:08Z</time>
      </trkpt>
      <trkpt lat="42.92777" lon="0.2234">
        <ele>1915</ele>
        <time>2025-04-01T07:30:42Z</time>
      </trkpt>
      <trkpt lat="42.92779" lon="0.22335">
        <ele>1915</ele>
        <time>2025-04-01T07:30:46Z</time>
      </trkpt>
      <trkpt lat="42.92782" lon="0.22332">
        <ele>1914</ele>
        <time>2025-04-01T07:30:52Z</time>
      </trkpt>
      <trkpt lat="42.92776" lon="0.22333">
        <ele>1913</ele>
        <time>2025-04-01T07:32:58Z</time>
      </trkpt>
      <trkpt lat="42.92773" lon="0.22335">
        <ele>1915</ele>
        <time>2025-04-01T07:36:55Z</time>
      </trkpt>
      <trkpt lat="42.92765" lon="0.22337">
        <ele>1916</ele>
        <time>2025-04-01T07:38:13Z</time>
      </trkpt>
      <trkpt lat="42.9276" lon="0.22335">
        <ele>1915</ele>
        <time>2025-04-01T07:38:17Z</time>
      </trkpt>
      <trkpt lat="42.92756" lon="0.22336">
        <ele>1916</ele>
        <time>2025-04-01T07:38:21Z</time>
      </trkpt>
      <trkpt lat="42.92752" lon="0.22337">
        <ele>1915</ele>
        <time>2025-04-01T07:38:25Z</time>
      </trkpt>
      <trkpt lat="42.92745" lon="0.22337">
        <ele>1915</ele>
        <time>2025-04-01T07:38:33Z</time>
      </trkpt>
      <trkpt lat="42.92741" lon="0.22338">
        <ele>1914</ele>
        <time>2025-04-01T07:38:37Z</time>
      </trkpt>
      <trkpt lat="42.92724" lon="0.22336">
        <ele>1913</ele>
        <time>2025-04-01T07:38:53Z</time>
      </trkpt>
      <trkpt lat="42.92717" lon="0.22338">
        <ele>1913</ele>
        <time>2025-04-01T07:39:01Z</time>
      </trkpt>
      <trkpt lat="42.92702" lon="0.22337">
        <ele>1913</ele>
        <time>2025-04-01T07:39:15Z</time>
      </trkpt>
      <trkpt lat="42.92684" lon="0.22335">
        <ele>1912</ele>
        <time>2025-04-01T07:39:35Z</time>
      </trkpt>
      <trkpt lat="42.92666" lon="0.22333">
        <ele>1911</ele>
        <time>2025-04-01T07:39:55Z</time>
      </trkpt>
      <trkpt lat="42.92657" lon="0.22328">
        <ele>1909</ele>
        <time>2025-04-01T07:40:05Z</time>
      </trkpt>
      <trkpt lat="42.92639" lon="0.22322">
        <ele>1906</ele>
        <time>2025-04-01T07:40:23Z</time>
      </trkpt>
      <trkpt lat="42.92629" lon="0.2232">
        <ele>1906</ele>
        <time>2025-04-01T07:40:33Z</time>
      </trkpt>
      <trkpt lat="42.9262" lon="0.22314">
        <ele>1905</ele>
        <time>2025-04-01T07:40:43Z</time>
      </trkpt>
      <trkpt lat="42.92599" lon="0.22314">
        <ele>1904</ele>
        <time>2025-04-01T07:41:03Z</time>
      </trkpt>
      <trkpt lat="42.9259" lon="0.22313">
        <ele>1905</ele>
        <time>2025-04-01T07:41:13Z</time>
      </trkpt>
      <trkpt lat="42.92569" lon="0.22311">
        <ele>1906</ele>
        <time>2025-04-01T07:41:35Z</time>
      </trkpt>
      <trkpt lat="42.92561" lon="0.22303">
        <ele>1906</ele>
        <time>2025-04-01T07:41:45Z</time>
      </trkpt>
      <trkpt lat="42.92533" lon="0.22289">
        <ele>1905</ele>
        <time>2025-04-01T07:42:15Z</time>
      </trkpt>
      <trkpt lat="42.92514" lon="0.22284">
        <ele>1906</ele>
        <time>2025-04-01T07:42:41Z</time>
      </trkpt>
      <trkpt lat="42.92509" lon="0.22272">
        <ele>1907</ele>
        <time>2025-04-01T07:42:55Z</time>
      </trkpt>
      <trkpt lat="42.92504" lon="0.22264">
        <ele>1908</ele>
        <time>2025-04-01T07:43:11Z</time>
      </trkpt>
      <trkpt lat="42.92497" lon="0.22271">
        <ele>1910</ele>
        <time>2025-04-01T07:46:27Z</time>
      </trkpt>
      <trkpt lat="42.92488" lon="0.22272">
        <ele>1909</ele>
        <time>2025-04-01T07:46:37Z</time>
      </trkpt>
      <trkpt lat="42.92469" lon="0.2228">
        <ele>1906</ele>
        <time>2025-04-01T07:47:03Z</time>
      </trkpt>
      <trkpt lat="42.92463" lon="0.22278">
        <ele>1905</ele>
        <time>2025-04-01T07:48:06Z</time>
      </trkpt>
      <trkpt lat="42.92448" lon="0.2229">
        <ele>1903</ele>
        <time>2025-04-01T07:48:38Z</time>
      </trkpt>
      <trkpt lat="42.92443" lon="0.22292">
        <ele>1903</ele>
        <time>2025-04-01T07:48:44Z</time>
      </trkpt>
      <trkpt lat="42.9244" lon="0.22295">
        <ele>1903</ele>
        <time>2025-04-01T07:48:50Z</time>
      </trkpt>
      <trkpt lat="42.92431" lon="0.22301">
        <ele>1901</ele>
        <time>2025-04-01T07:49:36Z</time>
      </trkpt>
      <trkpt lat="42.92422" lon="0.22307">
        <ele>1898</ele>
        <time>2025-04-01T07:49:50Z</time>
      </trkpt>
      <trkpt lat="42.92417" lon="0.22317">
        <ele>1897</ele>
        <time>2025-04-01T07:50:00Z</time>
      </trkpt>
      <trkpt lat="42.92409" lon="0.22325">
        <ele>1893</ele>
        <time>2025-04-01T07:50:12Z</time>
      </trkpt>
      <trkpt lat="42.9239" lon="0.22327">
        <ele>1890</ele>
        <time>2025-04-01T07:50:34Z</time>
      </trkpt>
      <trkpt lat="42.92382" lon="0.22334">
        <ele>1889</ele>
        <time>2025-04-01T07:50:46Z</time>
      </trkpt>
      <trkpt lat="42.92375" lon="0.22344">
        <ele>1886</ele>
        <time>2025-04-01T07:50:58Z</time>
      </trkpt>
      <trkpt lat="42.9237" lon="0.22354">
        <ele>1884</ele>
        <time>2025-04-01T07:51:08Z</time>
      </trkpt>
      <trkpt lat="42.92351" lon="0.2236">
        <ele>1879</ele>
        <time>2025-04-01T07:51:30Z</time>
      </trkpt>
      <trkpt lat="42.92341" lon="0.22363">
        <ele>1878</ele>
        <time>2025-04-01T07:52:38Z</time>
      </trkpt>
      <trkpt lat="42.92335" lon="0.22372">
        <ele>1877</ele>
        <time>2025-04-01T07:52:56Z</time>
      </trkpt>
      <trkpt lat="42.92326" lon="0.22376">
        <ele>1875</ele>
        <time>2025-04-01T07:53:08Z</time>
      </trkpt>
      <trkpt lat="42.92317" lon="0.22375">
        <ele>1873</ele>
        <time>2025-04-01T07:53:20Z</time>
      </trkpt>
      <trkpt lat="42.92307" lon="0.22373">
        <ele>1871</ele>
        <time>2025-04-01T07:53:32Z</time>
      </trkpt>
      <trkpt lat="42.92297" lon="0.22375">
        <ele>1869</ele>
        <time>2025-04-01T07:53:44Z</time>
      </trkpt>
      <trkpt lat="42.92288" lon="0.22376">
        <ele>1867</ele>
        <time>2025-04-01T07:53:56Z</time>
      </trkpt>
      <trkpt lat="42.92279" lon="0.22381">
        <ele>1866</ele>
        <time>2025-04-01T07:54:08Z</time>
      </trkpt>
      <trkpt lat="42.92269" lon="0.22384">
        <ele>1861</ele>
        <time>2025-04-01T07:54:20Z</time>
      </trkpt>
      <trkpt lat="42.92259" lon="0.22386">
        <ele>1859</ele>
        <time>2025-04-01T07:54:32Z</time>
      </trkpt>
      <trkpt lat="42.92249" lon="0.22391">
        <ele>1857</ele>
        <time>2025-04-01T07:54:44Z</time>
      </trkpt>
      <trkpt lat="42.92231" lon="0.22397">
        <ele>1853</ele>
        <time>2025-04-01T07:55:04Z</time>
      </trkpt>
      <trkpt lat="42.92222" lon="0.22404">
        <ele>1851</ele>
        <time>2025-04-01T07:55:14Z</time>
      </trkpt>
      <trkpt lat="42.92193" lon="0.22417">
        <ele>1850</ele>
        <time>2025-04-01T07:55:50Z</time>
      </trkpt>
      <trkpt lat="42.92179" lon="0.22416">
        <ele>1849</ele>
        <time>2025-04-01T07:56:44Z</time>
      </trkpt>
      <trkpt lat="42.92171" lon="0.22415">
        <ele>1848</ele>
        <time>2025-04-01T07:56:54Z</time>
      </trkpt>
      <trkpt lat="42.92167" lon="0.22415">
        <ele>1848</ele>
        <time>2025-04-01T07:57:16Z</time>
      </trkpt>
      <trkpt lat="42.92162" lon="0.22423">
        <ele>1847</ele>
        <time>2025-04-01T07:57:32Z</time>
      </trkpt>
      <trkpt lat="42.92155" lon="0.22428">
        <ele>1845</ele>
        <time>2025-04-01T07:57:42Z</time>
      </trkpt>
      <trkpt lat="42.92151" lon="0.22429">
        <ele>1844</ele>
        <time>2025-04-01T07:57:46Z</time>
      </trkpt>
      <trkpt lat="42.92147" lon="0.2243">
        <ele>1843</ele>
        <time>2025-04-01T07:57:50Z</time>
      </trkpt>
      <trkpt lat="42.92144" lon="0.2243">
        <ele>1843</ele>
        <time>2025-04-01T07:57:54Z</time>
      </trkpt>
      <trkpt lat="42.9214" lon="0.2243">
        <ele>1841</ele>
        <time>2025-04-01T07:57:58Z</time>
      </trkpt>
      <trkpt lat="42.92137" lon="0.22432">
        <ele>1841</ele>
        <time>2025-04-01T07:58:02Z</time>
      </trkpt>
      <trkpt lat="42.92129" lon="0.22438">
        <ele>1839</ele>
        <time>2025-04-01T07:58:12Z</time>
      </trkpt>
      <trkpt lat="42.9212" lon="0.22441">
        <ele>1836</ele>
        <time>2025-04-01T07:58:22Z</time>
      </trkpt>
      <trkpt lat="42.92111" lon="0.22447">
        <ele>1835</ele>
        <time>2025-04-01T07:58:32Z</time>
      </trkpt>
      <trkpt lat="42.92102" lon="0.22449">
        <ele>1831</ele>
        <time>2025-04-01T07:58:42Z</time>
      </trkpt>
      <trkpt lat="42.92091" lon="0.22446">
        <ele>1830</ele>
        <time>2025-04-01T07:58:52Z</time>
      </trkpt>
      <trkpt lat="42.92071" lon="0.22439">
        <ele>1825</ele>
        <time>2025-04-01T07:59:12Z</time>
      </trkpt>
      <trkpt lat="42.92061" lon="0.22441">
        <ele>1823</ele>
        <time>2025-04-01T07:59:38Z</time>
      </trkpt>
      <trkpt lat="42.92042" lon="0.22447">
        <ele>1821</ele>
        <time>2025-04-01T07:59:56Z</time>
      </trkpt>
      <trkpt lat="42.92032" lon="0.22448">
        <ele>1820</ele>
        <time>2025-04-01T08:00:04Z</time>
      </trkpt>
      <trkpt lat="42.92024" lon="0.22454">
        <ele>1820</ele>
        <time>2025-04-01T08:00:12Z</time>
      </trkpt>
      <trkpt lat="42.92006" lon="0.22463">
        <ele>1821</ele>
        <time>2025-04-01T08:00:30Z</time>
      </trkpt>
      <trkpt lat="42.91991" lon="0.22479">
        <ele>1824</ele>
        <time>2025-04-01T08:00:50Z</time>
      </trkpt>
      <trkpt lat="42.91987" lon="0.22492">
        <ele>1825</ele>
        <time>2025-04-01T08:01:02Z</time>
      </trkpt>
      <trkpt lat="42.91981" lon="0.22501">
        <ele>1827</ele>
        <time>2025-04-01T08:01:16Z</time>
      </trkpt>
      <trkpt lat="42.91972" lon="0.22508">
        <ele>1829</ele>
        <time>2025-04-01T08:01:28Z</time>
      </trkpt>
      <trkpt lat="42.91963" lon="0.22505">
        <ele>1830</ele>
        <time>2025-04-01T08:01:40Z</time>
      </trkpt>
      <trkpt lat="42.91954" lon="0.22504">
        <ele>1831</ele>
        <time>2025-04-01T08:01:52Z</time>
      </trkpt>
      <trkpt lat="42.91945" lon="0.22504">
        <ele>1832</ele>
        <time>2025-04-01T08:02:06Z</time>
      </trkpt>
      <trkpt lat="42.91942" lon="0.22508">
        <ele>1834</ele>
        <time>2025-04-01T08:02:18Z</time>
      </trkpt>
      <trkpt lat="42.91937" lon="0.22517">
        <ele>1836</ele>
        <time>2025-04-01T08:02:34Z</time>
      </trkpt>
      <trkpt lat="42.91921" lon="0.22529">
        <ele>1838</ele>
        <time>2025-04-01T08:02:54Z</time>
      </trkpt>
      <trkpt lat="42.91916" lon="0.22532">
        <ele>1838</ele>
        <time>2025-04-01T08:02:58Z</time>
      </trkpt>
      <trkpt lat="42.91902" lon="0.22535">
        <ele>1837</ele>
        <time>2025-04-01T08:03:38Z</time>
      </trkpt>
      <trkpt lat="42.91875" lon="0.22539">
        <ele>1838</ele>
        <time>2025-04-01T08:04:06Z</time>
      </trkpt>
      <trkpt lat="42.91849" lon="0.2255">
        <ele>1839</ele>
        <time>2025-04-01T08:04:36Z</time>
      </trkpt>
      <trkpt lat="42.9184" lon="0.22551">
        <ele>1838</ele>
        <time>2025-04-01T08:06:00Z</time>
      </trkpt>
      <trkpt lat="42.91829" lon="0.2255">
        <ele>1837</ele>
        <time>2025-04-01T08:06:10Z</time>
      </trkpt>
      <trkpt lat="42.91811" lon="0.2255">
        <ele>1835</ele>
        <time>2025-04-01T08:06:30Z</time>
      </trkpt>
      <trkpt lat="42.9179" lon="0.22552">
        <ele>1831</ele>
        <time>2025-04-01T08:06:52Z</time>
      </trkpt>
      <trkpt lat="42.91781" lon="0.22548">
        <ele>1828</ele>
        <time>2025-04-01T08:07:02Z</time>
      </trkpt>
      <trkpt lat="42.91773" lon="0.22546">
        <ele>1827</ele>
        <time>2025-04-01T08:07:10Z</time>
      </trkpt>
      <trkpt lat="42.91762" lon="0.22547">
        <ele>1825</ele>
        <time>2025-04-01T08:07:20Z</time>
      </trkpt>
      <trkpt lat="42.91753" lon="0.22547">
        <ele>1824</ele>
        <time>2025-04-01T08:07:28Z</time>
      </trkpt>
      <trkpt lat="42.91735" lon="0.22546">
        <ele>1823</ele>
        <time>2025-04-01T08:07:44Z</time>
      </trkpt>
      <trkpt lat="42.91725" lon="0.22544">
        <ele>1823</ele>
        <time>2025-04-01T08:07:54Z</time>
      </trkpt>
      <trkpt lat="42.91715" lon="0.22547">
        <ele>1823</ele>
        <time>2025-04-01T08:08:06Z</time>
      </trkpt>
      <trkpt lat="42.91706" lon="0.2255">
        <ele>1825</ele>
        <time>2025-04-01T08:08:22Z</time>
      </trkpt>
      <trkpt lat="42.91697" lon="0.22551">
        <ele>1827</ele>
        <time>2025-04-01T08:08:44Z</time>
      </trkpt>
      <trkpt lat="42.91687" lon="0.2255">
        <ele>1832</ele>
        <time>2025-04-01T08:09:06Z</time>
      </trkpt>
      <trkpt lat="42.91678" lon="0.22551">
        <ele>1834</ele>
        <time>2025-04-01T08:09:32Z</time>
      </trkpt>
      <trkpt lat="42.91668" lon="0.22555">
        <ele>1837</ele>
        <time>2025-04-01T08:10:04Z</time>
      </trkpt>
      <trkpt lat="42.9166" lon="0.22562">
        <ele>1837</ele>
        <time>2025-04-01T08:10:14Z</time>
      </trkpt>
      <trkpt lat="42.91642" lon="0.22565">
        <ele>1839</ele>
        <time>2025-04-01T08:10:34Z</time>
      </trkpt>
      <trkpt lat="42.91632" lon="0.22563">
        <ele>1839</ele>
        <time>2025-04-01T08:10:44Z</time>
      </trkpt>
      <trkpt lat="42.91623" lon="0.22566">
        <ele>1840</ele>
        <time>2025-04-01T08:10:54Z</time>
      </trkpt>
      <trkpt lat="42.91614" lon="0.22568">
        <ele>1841</ele>
        <time>2025-04-01T08:11:04Z</time>
      </trkpt>
      <trkpt lat="42.91584" lon="0.22575">
        <ele>1843</ele>
        <time>2025-04-01T08:11:36Z</time>
      </trkpt>
      <trkpt lat="42.91578" lon="0.22574">
        <ele>1842</ele>
        <time>2025-04-01T08:11:42Z</time>
      </trkpt>
      <trkpt lat="42.91569" lon="0.22575">
        <ele>1841</ele>
        <time>2025-04-01T08:11:51Z</time>
      </trkpt>
      <trkpt lat="42.91562" lon="0.22574">
        <ele>1839</ele>
        <time>2025-04-01T08:11:59Z</time>
      </trkpt>
      <trkpt lat="42.91558" lon="0.22573">
        <ele>1839</ele>
        <time>2025-04-01T08:12:03Z</time>
      </trkpt>
      <trkpt lat="42.91553" lon="0.22575">
        <ele>1839</ele>
        <time>2025-04-01T08:12:07Z</time>
      </trkpt>
      <trkpt lat="42.91545" lon="0.22576">
        <ele>1839</ele>
        <time>2025-04-01T08:12:15Z</time>
      </trkpt>
      <trkpt lat="42.91541" lon="0.22575">
        <ele>1840</ele>
        <time>2025-04-01T08:12:19Z</time>
      </trkpt>
      <trkpt lat="42.91537" lon="0.22575">
        <ele>1840</ele>
        <time>2025-04-01T08:12:23Z</time>
      </trkpt>
      <trkpt lat="42.91525" lon="0.22579">
        <ele>1841</ele>
        <time>2025-04-01T08:12:35Z</time>
      </trkpt>
      <trkpt lat="42.91513" lon="0.22577">
        <ele>1842</ele>
        <time>2025-04-01T08:12:47Z</time>
      </trkpt>
      <trkpt lat="42.9151" lon="0.22577">
        <ele>1843</ele>
        <time>2025-04-01T08:12:51Z</time>
      </trkpt>
      <trkpt lat="42.91501" lon="0.22576">
        <ele>1844</ele>
        <time>2025-04-01T08:13:03Z</time>
      </trkpt>
      <trkpt lat="42.91491" lon="0.22572">
        <ele>1845</ele>
        <time>2025-04-01T08:13:15Z</time>
      </trkpt>
      <trkpt lat="42.91481" lon="0.22574">
        <ele>1846</ele>
        <time>2025-04-01T08:13:27Z</time>
      </trkpt>
      <trkpt lat="42.91462" lon="0.22577">
        <ele>1849</ele>
        <time>2025-04-01T08:14:26Z</time>
      </trkpt>
      <trkpt lat="42.91454" lon="0.22579">
        <ele>1852</ele>
        <time>2025-04-01T08:14:39Z</time>
      </trkpt>
      <trkpt lat="42.91445" lon="0.22583">
        <ele>1854</ele>
        <time>2025-04-01T08:14:53Z</time>
      </trkpt>
      <trkpt lat="42.91438" lon="0.22593">
        <ele>1860</ele>
        <time>2025-04-01T08:15:14Z</time>
      </trkpt>
      <trkpt lat="42.91436" lon="0.22607">
        <ele>1862</ele>
        <time>2025-04-01T08:15:40Z</time>
      </trkpt>
      <trkpt lat="42.91428" lon="0.22612">
        <ele>1864</ele>
        <time>2025-04-01T08:16:10Z</time>
      </trkpt>
      <trkpt lat="42.91418" lon="0.22608">
        <ele>1865</ele>
        <time>2025-04-01T08:16:22Z</time>
      </trkpt>
      <trkpt lat="42.91408" lon="0.22605">
        <ele>1867</ele>
        <time>2025-04-01T08:16:34Z</time>
      </trkpt>
      <trkpt lat="42.91398" lon="0.22609">
        <ele>1868</ele>
        <time>2025-04-01T08:17:08Z</time>
      </trkpt>
      <trkpt lat="42.91389" lon="0.22609">
        <ele>1870</ele>
        <time>2025-04-01T08:17:20Z</time>
      </trkpt>
      <trkpt lat="42.9138" lon="0.22608">
        <ele>1873</ele>
        <time>2025-04-01T08:17:34Z</time>
      </trkpt>
      <trkpt lat="42.91371" lon="0.22611">
        <ele>1875</ele>
        <time>2025-04-01T08:17:48Z</time>
      </trkpt>
      <trkpt lat="42.91364" lon="0.22602">
        <ele>1876</ele>
        <time>2025-04-01T08:18:08Z</time>
      </trkpt>
      <trkpt lat="42.91355" lon="0.22605">
        <ele>1877</ele>
        <time>2025-04-01T08:18:48Z</time>
      </trkpt>
      <trkpt lat="42.91352" lon="0.22617">
        <ele>1878</ele>
        <time>2025-04-01T08:18:58Z</time>
      </trkpt>
      <trkpt lat="42.91346" lon="0.22626">
        <ele>1879</ele>
        <time>2025-04-01T08:19:08Z</time>
      </trkpt>
      <trkpt lat="42.91318" lon="0.2264">
        <ele>1877</ele>
        <time>2025-04-01T08:19:40Z</time>
      </trkpt>
      <trkpt lat="42.913" lon="0.22651">
        <ele>1874</ele>
        <time>2025-04-01T08:20:06Z</time>
      </trkpt>
      <trkpt lat="42.91285" lon="0.22666">
        <ele>1869</ele>
        <time>2025-04-01T08:20:26Z</time>
      </trkpt>
      <trkpt lat="42.91277" lon="0.22671">
        <ele>1866</ele>
        <time>2025-04-01T08:20:34Z</time>
      </trkpt>
      <trkpt lat="42.91269" lon="0.2268">
        <ele>1865</ele>
        <time>2025-04-01T08:20:44Z</time>
      </trkpt>
      <trkpt lat="42.91243" lon="0.22701">
        <ele>1859</ele>
        <time>2025-04-01T08:21:14Z</time>
      </trkpt>
      <trkpt lat="42.91234" lon="0.22706">
        <ele>1857</ele>
        <time>2025-04-01T08:21:24Z</time>
      </trkpt>
      <trkpt lat="42.91224" lon="0.2271">
        <ele>1854</ele>
        <time>2025-04-01T08:21:34Z</time>
      </trkpt>
      <trkpt lat="42.91217" lon="0.22718">
        <ele>1852</ele>
        <time>2025-04-01T08:21:44Z</time>
      </trkpt>
      <trkpt lat="42.9121" lon="0.22726">
        <ele>1850</ele>
        <time>2025-04-01T08:21:56Z</time>
      </trkpt>
      <trkpt lat="42.91209" lon="0.2274">
        <ele>1847</ele>
        <time>2025-04-01T08:22:12Z</time>
      </trkpt>
      <trkpt lat="42.91215" lon="0.22751">
        <ele>1845</ele>
        <time>2025-04-01T08:23:04Z</time>
      </trkpt>
      <trkpt lat="42.91216" lon="0.2277">
        <ele>1837</ele>
        <time>2025-04-01T08:23:28Z</time>
      </trkpt>
      <trkpt lat="42.91215" lon="0.22775">
        <ele>1834</ele>
        <time>2025-04-01T08:23:34Z</time>
      </trkpt>
      <trkpt lat="42.91215" lon="0.22786">
        <ele>1829</ele>
        <time>2025-04-01T08:23:48Z</time>
      </trkpt>
      <trkpt lat="42.91208" lon="0.22812">
        <ele>1824</ele>
        <time>2025-04-01T08:24:18Z</time>
      </trkpt>
      <trkpt lat="42.91207" lon="0.22816">
        <ele>1822</ele>
        <time>2025-04-01T08:24:22Z</time>
      </trkpt>
      <trkpt lat="42.91204" lon="0.22834">
        <ele>1820</ele>
        <time>2025-04-01T08:24:42Z</time>
      </trkpt>
      <trkpt lat="42.91204" lon="0.22861">
        <ele>1817</ele>
        <time>2025-04-01T08:25:10Z</time>
      </trkpt>
      <trkpt lat="42.91206" lon="0.22874">
        <ele>1814</ele>
        <time>2025-04-01T08:25:26Z</time>
      </trkpt>
      <trkpt lat="42.91206" lon="0.22887">
        <ele>1813</ele>
        <time>2025-04-01T08:25:42Z</time>
      </trkpt>
      <trkpt lat="42.91206" lon="0.22893">
        <ele>1809</ele>
        <time>2025-04-01T08:25:50Z</time>
      </trkpt>
      <trkpt lat="42.91202" lon="0.22893">
        <ele>1808</ele>
        <time>2025-04-01T08:25:56Z</time>
      </trkpt>
      <trkpt lat="42.91199" lon="0.22896">
        <ele>1808</ele>
        <time>2025-04-01T08:26:02Z</time>
      </trkpt>
      <trkpt lat="42.91197" lon="0.22899">
        <ele>1807</ele>
        <time>2025-04-01T08:26:06Z</time>
      </trkpt>
      <trkpt lat="42.91196" lon="0.22905">
        <ele>1806</ele>
        <time>2025-04-01T08:26:10Z</time>
      </trkpt>
      <trkpt lat="42.91201" lon="0.22914">
        <ele>1805</ele>
        <time>2025-04-01T08:26:24Z</time>
      </trkpt>
      <trkpt lat="42.91211" lon="0.2294">
        <ele>1805</ele>
        <time>2025-04-01T08:27:10Z</time>
      </trkpt>
      <trkpt lat="42.91211" lon="0.22945">
        <ele>1805</ele>
        <time>2025-04-01T08:27:16Z</time>
      </trkpt>
      <trkpt lat="42.91215" lon="0.22949">
        <ele>1804</ele>
        <time>2025-04-01T08:27:20Z</time>
      </trkpt>
      <trkpt lat="42.91218" lon="0.22972">
        <ele>1805</ele>
        <time>2025-04-01T08:27:42Z</time>
      </trkpt>
      <trkpt lat="42.91232" lon="0.23014">
        <ele>1804</ele>
        <time>2025-04-01T08:28:28Z</time>
      </trkpt>
      <trkpt lat="42.91238" lon="0.23024">
        <ele>1805</ele>
        <time>2025-04-01T08:28:46Z</time>
      </trkpt>
      <trkpt lat="42.91241" lon="0.23037">
        <ele>1804</ele>
        <time>2025-04-01T08:29:34Z</time>
      </trkpt>
      <trkpt lat="42.91256" lon="0.23071">
        <ele>1804</ele>
        <time>2025-04-01T08:30:06Z</time>
      </trkpt>
      <trkpt lat="42.91268" lon="0.23108">
        <ele>1806</ele>
        <time>2025-04-01T08:30:40Z</time>
      </trkpt>
      <trkpt lat="42.91269" lon="0.23121">
        <ele>1806</ele>
        <time>2025-04-01T08:30:56Z</time>
      </trkpt>
      <trkpt lat="42.91276" lon="0.23129">
        <ele>1807</ele>
        <time>2025-04-01T08:31:48Z</time>
      </trkpt>
      <trkpt lat="42.91289" lon="0.23162">
        <ele>1807</ele>
        <time>2025-04-01T08:32:18Z</time>
      </trkpt>
      <trkpt lat="42.91292" lon="0.2317">
        <ele>1808</ele>
        <time>2025-04-01T08:32:26Z</time>
      </trkpt>
      <trkpt lat="42.91295" lon="0.23173">
        <ele>1809</ele>
        <time>2025-04-01T08:32:52Z</time>
      </trkpt>
      <trkpt lat="42.91296" lon="0.23178">
        <ele>1809</ele>
        <time>2025-04-01T08:32:56Z</time>
      </trkpt>
      <trkpt lat="42.913" lon="0.23214">
        <ele>1810</ele>
        <time>2025-04-01T08:33:26Z</time>
      </trkpt>
      <trkpt lat="42.91305" lon="0.23245">
        <ele>1811</ele>
        <time>2025-04-01T08:33:52Z</time>
      </trkpt>
      <trkpt lat="42.91306" lon="0.23263">
        <ele>1814</ele>
        <time>2025-04-01T08:34:04Z</time>
      </trkpt>
      <trkpt lat="42.91304" lon="0.23269">
        <ele>1817</ele>
        <time>2025-04-01T08:34:40Z</time>
      </trkpt>
      <trkpt lat="42.91304" lon="0.23287">
        <ele>1820</ele>
        <time>2025-04-01T08:34:56Z</time>
      </trkpt>
      <trkpt lat="42.91302" lon="0.23292">
        <ele>1820</ele>
        <time>2025-04-01T08:35:00Z</time>
      </trkpt>
      <trkpt lat="42.91302" lon="0.23298">
        <ele>1821</ele>
        <time>2025-04-01T08:35:06Z</time>
      </trkpt>
      <trkpt lat="42.91303" lon="0.23303">
        <ele>1821</ele>
        <time>2025-04-01T08:35:10Z</time>
      </trkpt>
      <trkpt lat="42.91306" lon="0.23317">
        <ele>1821</ele>
        <time>2025-04-01T08:35:18Z</time>
      </trkpt>
      <trkpt lat="42.91306" lon="0.23326">
        <ele>1824</ele>
        <time>2025-04-01T08:35:30Z</time>
      </trkpt>
      <trkpt lat="42.91306" lon="0.23337">
        <ele>1823</ele>
        <time>2025-04-01T08:35:58Z</time>
      </trkpt>
      <trkpt lat="42.91304" lon="0.23366">
        <ele>1824</ele>
        <time>2025-04-01T08:36:22Z</time>
      </trkpt>
      <trkpt lat="42.91307" lon="0.23398">
        <ele>1825</ele>
        <time>2025-04-01T08:36:46Z</time>
      </trkpt>
      <trkpt lat="42.91311" lon="0.23415">
        <ele>1825</ele>
        <time>2025-04-01T08:37:02Z</time>
      </trkpt>
      <trkpt lat="42.91312" lon="0.23421">
        <ele>1825</ele>
        <time>2025-04-01T08:37:06Z</time>
      </trkpt>
      <trkpt lat="42.91315" lon="0.23432">
        <ele>1826</ele>
        <time>2025-04-01T08:37:14Z</time>
      </trkpt>
      <trkpt lat="42.91316" lon="0.23437">
        <ele>1826</ele>
        <time>2025-04-01T08:37:18Z</time>
      </trkpt>
      <trkpt lat="42.91318" lon="0.23443">
        <ele>1826</ele>
        <time>2025-04-01T08:37:24Z</time>
      </trkpt>
      <trkpt lat="42.91325" lon="0.23464">
        <ele>1826</ele>
        <time>2025-04-01T08:37:40Z</time>
      </trkpt>
      <trkpt lat="42.91326" lon="0.23469">
        <ele>1826</ele>
        <time>2025-04-01T08:37:44Z</time>
      </trkpt>
      <trkpt lat="42.91336" lon="0.23487">
        <ele>1825</ele>
        <time>2025-04-01T08:38:04Z</time>
      </trkpt>
      <trkpt lat="42.91334" lon="0.23499">
        <ele>1824</ele>
        <time>2025-04-01T08:38:10Z</time>
      </trkpt>
      <trkpt lat="42.91336" lon="0.23511">
        <ele>1823</ele>
        <time>2025-04-01T08:38:20Z</time>
      </trkpt>
      <trkpt lat="42.91343" lon="0.23553">
        <ele>1818</ele>
        <time>2025-04-01T08:38:52Z</time>
      </trkpt>
      <trkpt lat="42.91347" lon="0.23564">
        <ele>1817</ele>
        <time>2025-04-01T08:39:02Z</time>
      </trkpt>
      <trkpt lat="42.91351" lon="0.23577">
        <ele>1815</ele>
        <time>2025-04-01T08:39:12Z</time>
      </trkpt>
      <trkpt lat="42.91354" lon="0.23592">
        <ele>1812</ele>
        <time>2025-04-01T08:39:24Z</time>
      </trkpt>
      <trkpt lat="42.91355" lon="0.23598">
        <ele>1809</ele>
        <time>2025-04-01T08:39:30Z</time>
      </trkpt>
      <trkpt lat="42.91358" lon="0.23605">
        <ele>1807</ele>
        <time>2025-04-01T08:39:36Z</time>
      </trkpt>
      <trkpt lat="42.91361" lon="0.23621">
        <ele>1804</ele>
        <time>2025-04-01T08:39:50Z</time>
      </trkpt>
      <trkpt lat="42.9136" lon="0.23625">
        <ele>1803</ele>
        <time>2025-04-01T08:39:54Z</time>
      </trkpt>
      <trkpt lat="42.91362" lon="0.2363">
        <ele>1801</ele>
        <time>2025-04-01T08:40:02Z</time>
      </trkpt>
      <trkpt lat="42.91374" lon="0.23633">
        <ele>1797</ele>
        <time>2025-04-01T08:40:16Z</time>
      </trkpt>
      <trkpt lat="42.91378" lon="0.23634">
        <ele>1796</ele>
        <time>2025-04-01T08:40:20Z</time>
      </trkpt>
      <trkpt lat="42.91381" lon="0.23638">
        <ele>1795</ele>
        <time>2025-04-01T08:40:24Z</time>
      </trkpt>
      <trkpt lat="42.91388" lon="0.23642">
        <ele>1793</ele>
        <time>2025-04-01T08:40:32Z</time>
      </trkpt>
      <trkpt lat="42.9141" lon="0.23664">
        <ele>1788</ele>
        <time>2025-04-01T08:41:00Z</time>
      </trkpt>
      <trkpt lat="42.91414" lon="0.23667">
        <ele>1787</ele>
        <time>2025-04-01T08:41:04Z</time>
      </trkpt>
      <trkpt lat="42.91441" lon="0.23697">
        <ele>1781</ele>
        <time>2025-04-01T08:41:38Z</time>
      </trkpt>
      <trkpt lat="42.91444" lon="0.23701">
        <ele>1780</ele>
        <time>2025-04-01T08:41:42Z</time>
      </trkpt>
      <trkpt lat="42.91448" lon="0.23706">
        <ele>1780</ele>
        <time>2025-04-01T08:41:46Z</time>
      </trkpt>
      <trkpt lat="42.91457" lon="0.23709">
        <ele>1779</ele>
        <time>2025-04-01T08:41:54Z</time>
      </trkpt>
      <trkpt lat="42.91462" lon="0.23711">
        <ele>1779</ele>
        <time>2025-04-01T08:41:58Z</time>
      </trkpt>
      <trkpt lat="42.91467" lon="0.23713">
        <ele>1779</ele>
        <time>2025-04-01T08:42:02Z</time>
      </trkpt>
      <trkpt lat="42.91472" lon="0.23714">
        <ele>1779</ele>
        <time>2025-04-01T08:42:06Z</time>
      </trkpt>
      <trkpt lat="42.91476" lon="0.23716">
        <ele>1779</ele>
        <time>2025-04-01T08:42:10Z</time>
      </trkpt>
      <trkpt lat="42.91489" lon="0.23722">
        <ele>1778</ele>
        <time>2025-04-01T08:42:22Z</time>
      </trkpt>
      <trkpt lat="42.91493" lon="0.23722">
        <ele>1778</ele>
        <time>2025-04-01T08:42:26Z</time>
      </trkpt>
      <trkpt lat="42.91502" lon="0.23724">
        <ele>1778</ele>
        <time>2025-04-01T08:42:34Z</time>
      </trkpt>
      <trkpt lat="42.91505" lon="0.23727">
        <ele>1778</ele>
        <time>2025-04-01T08:42:38Z</time>
      </trkpt>
      <trkpt lat="42.91515" lon="0.23733">
        <ele>1779</ele>
        <time>2025-04-01T08:43:08Z</time>
      </trkpt>
      <trkpt lat="42.91524" lon="0.23734">
        <ele>1779</ele>
        <time>2025-04-01T08:43:18Z</time>
      </trkpt>
      <trkpt lat="42.91537" lon="0.23742">
        <ele>1781</ele>
        <time>2025-04-01T08:43:34Z</time>
      </trkpt>
      <trkpt lat="42.9154" lon="0.23743">
        <ele>1782</ele>
        <time>2025-04-01T08:43:38Z</time>
      </trkpt>
      <trkpt lat="42.91543" lon="0.23741">
        <ele>1782</ele>
        <time>2025-04-01T08:43:42Z</time>
      </trkpt>
      <trkpt lat="42.91546" lon="0.23744">
        <ele>1783</ele>
        <time>2025-04-01T08:43:46Z</time>
      </trkpt>
      <trkpt lat="42.91549" lon="0.2375">
        <ele>1785</ele>
        <time>2025-04-01T08:43:52Z</time>
      </trkpt>
      <trkpt lat="42.91551" lon="0.23754">
        <ele>1786</ele>
        <time>2025-04-01T08:43:58Z</time>
      </trkpt>
      <trkpt lat="42.91553" lon="0.2376">
        <ele>1786</ele>
        <time>2025-04-01T08:44:04Z</time>
      </trkpt>
      <trkpt lat="42.91555" lon="0.23765">
        <ele>1787</ele>
        <time>2025-04-01T08:44:08Z</time>
      </trkpt>
      <trkpt lat="42.91558" lon="0.23767">
        <ele>1787</ele>
        <time>2025-04-01T08:44:18Z</time>
      </trkpt>
      <trkpt lat="42.91562" lon="0.23755">
        <ele>1787</ele>
        <time>2025-04-01T08:45:54Z</time>
      </trkpt>
      <trkpt lat="42.91565" lon="0.23743">
        <ele>1786</ele>
        <time>2025-04-01T08:46:06Z</time>
      </trkpt>
      <trkpt lat="42.91563" lon="0.2374">
        <ele>1787</ele>
        <time>2025-04-01T08:48:34Z</time>
      </trkpt>
      <trkpt lat="42.91559" lon="0.2374">
        <ele>1788</ele>
        <time>2025-04-01T08:48:42Z</time>
      </trkpt>
      <trkpt lat="42.91559" lon="0.23736">
        <ele>1789</ele>
        <time>2025-04-01T08:52:44Z</time>
      </trkpt>
      <trkpt lat="42.91557" lon="0.23732">
        <ele>1791</ele>
        <time>2025-04-01T08:54:36Z</time>
      </trkpt>
      <trkpt lat="42.91559" lon="0.23727">
        <ele>1789</ele>
        <time>2025-04-01T08:54:40Z</time>
      </trkpt>
      <trkpt lat="42.91562" lon="0.23726">
        <ele>1788</ele>
        <time>2025-04-01T08:54:46Z</time>
      </trkpt>
      <trkpt lat="42.91564" lon="0.23731">
        <ele>1787</ele>
        <time>2025-04-01T08:54:52Z</time>
      </trkpt>
      <trkpt lat="42.91578" lon="0.23728">
        <ele>1771.1</ele>
        <time>2025-04-01T05:04:48Z</time>
      </trkpt>
      <trkpt lat="42.91592" lon="0.23732">
        <ele>1766.6</ele>
        <time>2025-04-01T05:04:48Z</time>
      </trkpt>
      <trkpt lat="42.91604" lon="0.23768">
        <ele>1762.1</ele>
        <time>2025-04-01T05:04:48Z</time>
      </trkpt>
      <trkpt lat="42.91648" lon="0.23818">
        <ele>1745.2</ele>
        <time>2025-04-01T05:04:48Z</time>
      </trkpt>
      <trkpt lat="42.91674" lon="0.23792">
        <ele>1735.6</ele>
        <time>2025-04-01T05:04:48Z</time>
      </trkpt>
      <trkpt lat="42.91702" lon="0.23831">
        <ele>1722.2</ele>
        <time>2025-04-01T05:04:48Z</time>
      </trkpt>
      <trkpt lat="42.9171" lon="0.23849">
        <ele>1716.2</ele>
        <time>2025-04-01T05:04:48Z</time>
      </trkpt>
      <trkpt lat="42.91711" lon="0.23867">
        <ele>1713.6</ele>
        <time>2025-04-01T05:04:48Z</time>
      </trkpt>
      <trkpt lat="42.9172" lon="0.23885">
        <ele>1708.2</ele>
        <time>2025-04-01T05:04:48Z</time>
      </trkpt>
      <trkpt lat="42.91777" lon="0.23944">
        <ele>1681.2</ele>
        <time>2025-04-01T05:04:48Z</time>
      </trkpt>
      <trkpt lat="42.91791" lon="0.23946">
        <ele>1676.3</ele>
        <time>2025-04-01T05:04:48Z</time>
      </trkpt>
      <trkpt lat="42.91805" lon="0.23935">
        <ele>1673.8</ele>
        <time>2025-04-01T05:04:48Z</time>
      </trkpt>
      <trkpt lat="42.9182" lon="0.23916">
        <ele>1673</ele>
        <time>2025-04-01T05:04:48Z</time>
      </trkpt>
      <trkpt lat="42.91834" lon="0.23923">
        <ele>1668</ele>
        <time>2025-04-01T05:04:48Z</time>
      </trkpt>
      <trkpt lat="42.9185" lon="0.23939">
        <ele>1660.8</ele>
        <time>2025-04-01T05:04:48Z</time>
      </trkpt>
      <trkpt lat="42.9187" lon="0.23975">
        <ele>1647.7</ele>
        <time>2025-04-01T05:04:48Z</time>
      </trkpt>
      <trkpt lat="42.91884" lon="0.23984">
        <ele>1641.7</ele>
        <time>2025-04-01T05:04:48Z</time>
      </trkpt>
      <trkpt lat="42.91928" lon="0.23982">
        <ele>1630.6</ele>
        <time>2025-04-01T05:04:48Z</time>
      </trkpt>
      <trkpt lat="42.91942" lon="0.23967">
        <ele>1629</ele>
        <time>2025-04-01T05:04:48Z</time>
      </trkpt>
      <trkpt lat="42.91957" lon="0.23983">
        <ele>1623</ele>
        <time>2025-04-01T05:04:48Z</time>
      </trkpt>
      <trkpt lat="42.91971" lon="0.23986">
        <ele>1618.8</ele>
        <time>2025-04-01T05:04:48Z</time>
      </trkpt>
      <trkpt lat="42.91985" lon="0.23984">
        <ele>1615.4</ele>
        <time>2025-04-01T05:04:48Z</time>
      </trkpt>
      <trkpt lat="42.91998" lon="0.23986">
        <ele>1611.6</ele>
        <time>2025-04-01T05:04:48Z</time>
      </trkpt>
      <trkpt lat="42.92011" lon="0.23997">
        <ele>1607.4</ele>
        <time>2025-04-01T05:04:48Z</time>
      </trkpt>
      <trkpt lat="42.92025" lon="0.24">
        <ele>1603.8</ele>
        <time>2025-04-01T05:04:48Z</time>
      </trkpt>
      <trkpt lat="42.92038" lon="0.24012">
        <ele>1598.9</ele>
        <time>2025-04-01T05:04:48Z</time>
      </trkpt>
      <trkpt lat="42.92058" lon="0.24">
        <ele>1787</ele>
        <time>2025-04-01T08:54:52Z</time>
      </trkpt>
      <trkpt lat="42.92036" lon="0.24002">
        <ele>1609</ele>
        <time>2025-04-01T10:06:47Z</time>
      </trkpt>
      <trkpt lat="42.92036" lon="0.24002">
        <ele>1609</ele>
        <time>2025-04-01T10:06:49Z</time>
      </trkpt>
      <trkpt lat="42.9204" lon="0.24">
        <ele>1609</ele>
        <time>2025-04-01T10:07:09Z</time>
      </trkpt>
      <trkpt lat="42.92048" lon="0.23994">
        <ele>1606</ele>
        <time>2025-04-01T10:07:19Z</time>
      </trkpt>
      <trkpt lat="42.92053" lon="0.23995">
        <ele>1605</ele>
        <time>2025-04-01T10:07:25Z</time>
      </trkpt>
      <trkpt lat="42.92062" lon="0.23997">
        <ele>1603</ele>
        <time>2025-04-01T10:07:37Z</time>
      </trkpt>
      <trkpt lat="42.92067" lon="0.23996">
        <ele>1600</ele>
        <time>2025-04-01T10:07:43Z</time>
      </trkpt>
      <trkpt lat="42.92074" lon="0.23995">
        <ele>1599</ele>
        <time>2025-04-01T10:07:51Z</time>
      </trkpt>
      <trkpt lat="42.92078" lon="0.23996">
        <ele>1598</ele>
        <time>2025-04-01T10:07:55Z</time>
      </trkpt>
      <trkpt lat="42.92081" lon="0.23997">
        <ele>1597</ele>
        <time>2025-04-01T10:07:59Z</time>
      </trkpt>
      <trkpt lat="42.92086" lon="0.23998">
        <ele>1595</ele>
        <time>2025-04-01T10:08:05Z</time>
      </trkpt>
      <trkpt lat="42.92091" lon="0.23999">
        <ele>1594</ele>
        <time>2025-04-01T10:08:11Z</time>
      </trkpt>
      <trkpt lat="42.92101" lon="0.24002">
        <ele>1592</ele>
        <time>2025-04-01T10:08:23Z</time>
      </trkpt>
      <trkpt lat="42.92106" lon="0.24004">
        <ele>1591</ele>
        <time>2025-04-01T10:08:29Z</time>
      </trkpt>
      <trkpt lat="42.9211" lon="0.24004">
        <ele>1589</ele>
        <time>2025-04-01T10:08:33Z</time>
      </trkpt>
      <trkpt lat="42.9213" lon="0.24008">
        <ele>1586</ele>
        <time>2025-04-01T10:08:55Z</time>
      </trkpt>
      <trkpt lat="42.92139" lon="0.24009">
        <ele>1583</ele>
        <time>2025-04-01T10:09:05Z</time>
      </trkpt>
      <trkpt lat="42.92148" lon="0.24009">
        <ele>1582</ele>
        <time>2025-04-01T10:09:15Z</time>
      </trkpt>
      <trkpt lat="42.92157" lon="0.24018">
        <ele>1579</ele>
        <time>2025-04-01T10:09:25Z</time>
      </trkpt>
      <trkpt lat="42.92165" lon="0.24023">
        <ele>1578</ele>
        <time>2025-04-01T10:09:35Z</time>
      </trkpt>
      <trkpt lat="42.92196" lon="0.24032">
        <ele>1573</ele>
        <time>2025-04-01T10:10:11Z</time>
      </trkpt>
      <trkpt lat="42.92205" lon="0.24033">
        <ele>1572</ele>
        <time>2025-04-01T10:10:21Z</time>
      </trkpt>
      <trkpt lat="42.92222" lon="0.24042">
        <ele>1568</ele>
        <time>2025-04-01T10:10:41Z</time>
      </trkpt>
      <trkpt lat="42.92232" lon="0.24045">
        <ele>1566</ele>
        <time>2025-04-01T10:10:51Z</time>
      </trkpt>
      <trkpt lat="42.92246" lon="0.24048">
        <ele>1563</ele>
        <time>2025-04-01T10:11:05Z</time>
      </trkpt>
      <trkpt lat="42.92253" lon="0.24047">
        <ele>1562</ele>
        <time>2025-04-01T10:11:13Z</time>
      </trkpt>
      <trkpt lat="42.92256" lon="0.24049">
        <ele>1561</ele>
        <time>2025-04-01T10:11:17Z</time>
      </trkpt>
      <trkpt lat="42.92259" lon="0.24052">
        <ele>1561</ele>
        <time>2025-04-01T10:11:21Z</time>
      </trkpt>
      <trkpt lat="42.92263" lon="0.2405">
        <ele>1560</ele>
        <time>2025-04-01T10:11:25Z</time>
      </trkpt>
      <trkpt lat="42.92267" lon="0.2405">
        <ele>1560</ele>
        <time>2025-04-01T10:11:29Z</time>
      </trkpt>
      <trkpt lat="42.92271" lon="0.24051">
        <ele>1559</ele>
        <time>2025-04-01T10:11:33Z</time>
      </trkpt>
      <trkpt lat="42.92276" lon="0.24054">
        <ele>1559</ele>
        <time>2025-04-01T10:11:39Z</time>
      </trkpt>
      <trkpt lat="42.92279" lon="0.24054">
        <ele>1558</ele>
        <time>2025-04-01T10:11:43Z</time>
      </trkpt>
      <trkpt lat="42.92284" lon="0.24054">
        <ele>1558</ele>
        <time>2025-04-01T10:11:49Z</time>
      </trkpt>
      <trkpt lat="42.92289" lon="0.24053">
        <ele>1557</ele>
        <time>2025-04-01T10:11:55Z</time>
      </trkpt>
      <trkpt lat="42.92297" lon="0.24057">
        <ele>1555</ele>
        <time>2025-04-01T10:12:03Z</time>
      </trkpt>
      <trkpt lat="42.92307" lon="0.24055">
        <ele>1554</ele>
        <time>2025-04-01T10:12:15Z</time>
      </trkpt>
      <trkpt lat="42.92318" lon="0.24052">
        <ele>1552</ele>
        <time>2025-04-01T10:12:27Z</time>
      </trkpt>
      <trkpt lat="42.92327" lon="0.24054">
        <ele>1551</ele>
        <time>2025-04-01T10:12:37Z</time>
      </trkpt>
      <trkpt lat="42.92336" lon="0.24052">
        <ele>1548</ele>
        <time>2025-04-01T10:12:47Z</time>
      </trkpt>
      <trkpt lat="42.92345" lon="0.2405">
        <ele>1548</ele>
        <time>2025-04-01T10:12:57Z</time>
      </trkpt>
      <trkpt lat="42.92356" lon="0.24049">
        <ele>1545</ele>
        <time>2025-04-01T10:13:09Z</time>
      </trkpt>
      <trkpt lat="42.92365" lon="0.24049">
        <ele>1544</ele>
        <time>2025-04-01T10:13:19Z</time>
      </trkpt>
      <trkpt lat="42.92384" lon="0.24048">
        <ele>1540</ele>
        <time>2025-04-01T10:13:41Z</time>
      </trkpt>
      <trkpt lat="42.92395" lon="0.24046">
        <ele>1537</ele>
        <time>2025-04-01T10:13:53Z</time>
      </trkpt>
      <trkpt lat="42.92405" lon="0.2405">
        <ele>1536</ele>
        <time>2025-04-01T10:14:05Z</time>
      </trkpt>
      <trkpt lat="42.92415" lon="0.24054">
        <ele>1533</ele>
        <time>2025-04-01T10:14:17Z</time>
      </trkpt>
      <trkpt lat="42.92425" lon="0.24061">
        <ele>1530</ele>
        <time>2025-04-01T10:14:29Z</time>
      </trkpt>
      <trkpt lat="42.92433" lon="0.24055">
        <ele>1529</ele>
        <time>2025-04-01T10:14:39Z</time>
      </trkpt>
      <trkpt lat="42.92443" lon="0.2405">
        <ele>1527</ele>
        <time>2025-04-01T10:14:51Z</time>
      </trkpt>
      <trkpt lat="42.92453" lon="0.2405">
        <ele>1526</ele>
        <time>2025-04-01T10:15:01Z</time>
      </trkpt>
      <trkpt lat="42.92456" lon="0.24053">
        <ele>1524</ele>
        <time>2025-04-01T10:15:05Z</time>
      </trkpt>
      <trkpt lat="42.9245" lon="0.24081">
        <ele>1517</ele>
        <time>2025-04-01T10:15:29Z</time>
      </trkpt>
      <trkpt lat="42.9245" lon="0.24088">
        <ele>1516</ele>
        <time>2025-04-01T10:15:35Z</time>
      </trkpt>
      <trkpt lat="42.92453" lon="0.24092">
        <ele>1514</ele>
        <time>2025-04-01T10:15:41Z</time>
      </trkpt>
      <trkpt lat="42.92457" lon="0.24096">
        <ele>1513</ele>
        <time>2025-04-01T10:15:47Z</time>
      </trkpt>
      <trkpt lat="42.92458" lon="0.24102">
        <ele>1511</ele>
        <time>2025-04-01T10:15:53Z</time>
      </trkpt>
      <trkpt lat="42.92462" lon="0.24107">
        <ele>1510</ele>
        <time>2025-04-01T10:15:59Z</time>
      </trkpt>
      <trkpt lat="42.92465" lon="0.24112">
        <ele>1508</ele>
        <time>2025-04-01T10:16:05Z</time>
      </trkpt>
      <trkpt lat="42.92484" lon="0.24115">
        <ele>1504</ele>
        <time>2025-04-01T10:16:25Z</time>
      </trkpt>
      <trkpt lat="42.92488" lon="0.24117">
        <ele>1502</ele>
        <time>2025-04-01T10:16:31Z</time>
      </trkpt>
      <trkpt lat="42.92488" lon="0.24122">
        <ele>1501</ele>
        <time>2025-04-01T10:16:37Z</time>
      </trkpt>
      <trkpt lat="42.92496" lon="0.2412">
        <ele>1501</ele>
        <time>2025-04-01T10:16:47Z</time>
      </trkpt>
      <trkpt lat="42.925" lon="0.2412">
        <ele>1500</ele>
        <time>2025-04-01T10:16:51Z</time>
      </trkpt>
      <trkpt lat="42.92508" lon="0.2412">
        <ele>1500</ele>
        <time>2025-04-01T10:17:21Z</time>
      </trkpt>
      <trkpt lat="42.92512" lon="0.24119">
        <ele>1499</ele>
        <time>2025-04-01T10:17:25Z</time>
      </trkpt>
      <trkpt lat="42.92527" lon="0.24121">
        <ele>1497</ele>
        <time>2025-04-01T10:17:41Z</time>
      </trkpt>
      <trkpt lat="42.92553" lon="0.24141">
        <ele>1493</ele>
        <time>2025-04-01T10:18:15Z</time>
      </trkpt>
      <trkpt lat="42.92561" lon="0.24148">
        <ele>1491</ele>
        <time>2025-04-01T10:18:27Z</time>
      </trkpt>
      <trkpt lat="42.92571" lon="0.24152">
        <ele>1487</ele>
        <time>2025-04-01T10:18:39Z</time>
      </trkpt>
      <trkpt lat="42.92584" lon="0.24158">
        <ele>1484</ele>
        <time>2025-04-01T10:18:57Z</time>
      </trkpt>
      <trkpt lat="42.92607" lon="0.24161">
        <ele>1482</ele>
        <time>2025-04-01T10:19:17Z</time>
      </trkpt>
      <trkpt lat="42.92634" lon="0.24173">
        <ele>1476</ele>
        <time>2025-04-01T10:19:47Z</time>
      </trkpt>
      <trkpt lat="42.92638" lon="0.24172">
        <ele>1474</ele>
        <time>2025-04-01T10:19:51Z</time>
      </trkpt>
      <trkpt lat="42.92641" lon="0.24171">
        <ele>1474</ele>
        <time>2025-04-01T10:19:57Z</time>
      </trkpt>
      <trkpt lat="42.92666" lon="0.24182">
        <ele>1468</ele>
        <time>2025-04-01T10:20:27Z</time>
      </trkpt>
      <trkpt lat="42.92674" lon="0.24188">
        <ele>1467</ele>
        <time>2025-04-01T10:20:35Z</time>
      </trkpt>
      <trkpt lat="42.92686" lon="0.24198">
        <ele>1462</ele>
        <time>2025-04-01T10:20:53Z</time>
      </trkpt>
      <trkpt lat="42.92691" lon="0.24199">
        <ele>1461</ele>
        <time>2025-04-01T10:20:57Z</time>
      </trkpt>
      <trkpt lat="42.927" lon="0.24202">
        <ele>1457</ele>
        <time>2025-04-01T10:21:23Z</time>
      </trkpt>
      <trkpt lat="42.92715" lon="0.24207">
        <ele>1453</ele>
        <time>2025-04-01T10:21:39Z</time>
      </trkpt>
      <trkpt lat="42.92718" lon="0.24209">
        <ele>1451</ele>
        <time>2025-04-01T10:21:43Z</time>
      </trkpt>
      <trkpt lat="42.92722" lon="0.2421">
        <ele>1450</ele>
        <time>2025-04-01T10:21:47Z</time>
      </trkpt>
      <trkpt lat="42.92728" lon="0.24211">
        <ele>1449</ele>
        <time>2025-04-01T10:21:53Z</time>
      </trkpt>
      <trkpt lat="42.92761" lon="0.2423">
        <ele>1440</ele>
        <time>2025-04-01T10:22:25Z</time>
      </trkpt>
      <trkpt lat="42.92779" lon="0.24241">
        <ele>1435</ele>
        <time>2025-04-01T10:22:45Z</time>
      </trkpt>
      <trkpt lat="42.92785" lon="0.24247">
        <ele>1433</ele>
        <time>2025-04-01T10:22:53Z</time>
      </trkpt>
      <trkpt lat="42.9279" lon="0.24249">
        <ele>1432</ele>
        <time>2025-04-01T10:22:57Z</time>
      </trkpt>
      <trkpt lat="42.92818" lon="0.24267">
        <ele>1424</ele>
        <time>2025-04-01T10:23:29Z</time>
      </trkpt>
      <trkpt lat="42.92832" lon="0.24287">
        <ele>1418</ele>
        <time>2025-04-01T10:23:45Z</time>
      </trkpt>
      <trkpt lat="42.92833" lon="0.24294">
        <ele>1417</ele>
        <time>2025-04-01T10:23:51Z</time>
      </trkpt>
      <trkpt lat="42.92837" lon="0.24297">
        <ele>1414</ele>
        <time>2025-04-01T10:27:21Z</time>
      </trkpt>
      <trkpt lat="42.9284" lon="0.243">
        <ele>1414</ele>
        <time>2025-04-01T10:27:23Z</time>
      </trkpt>
      <trkpt lat="42.92846" lon="0.24306">
        <ele>1412</ele>
        <time>2025-04-01T10:27:27Z</time>
      </trkpt>
      <trkpt lat="42.92849" lon="0.24308">
        <ele>1412</ele>
        <time>2025-04-01T10:27:29Z</time>
      </trkpt>
      <trkpt lat="42.92855" lon="0.2431">
        <ele>1412</ele>
        <time>2025-04-01T10:27:33Z</time>
      </trkpt>
      <trkpt lat="42.92866" lon="0.2433">
        <ele>1406</ele>
        <time>2025-04-01T10:27:49Z</time>
      </trkpt>
      <trkpt lat="42.92875" lon="0.24339">
        <ele>1404</ele>
        <time>2025-04-01T10:27:57Z</time>
      </trkpt>
      <trkpt lat="42.9288" lon="0.24343">
        <ele>1403</ele>
        <time>2025-04-01T10:28:01Z</time>
      </trkpt>
      <trkpt lat="42.92884" lon="0.24346">
        <ele>1403</ele>
        <time>2025-04-01T10:28:05Z</time>
      </trkpt>
      <trkpt lat="42.92897" lon="0.24358">
        <ele>1399</ele>
        <time>2025-04-01T10:28:21Z</time>
      </trkpt>
      <trkpt lat="42.929" lon="0.24362">
        <ele>1398</ele>
        <time>2025-04-01T10:28:25Z</time>
      </trkpt>
      <trkpt lat="42.92908" lon="0.24375">
        <ele>1396</ele>
        <time>2025-04-01T10:28:33Z</time>
      </trkpt>
      <trkpt lat="42.92913" lon="0.24377">
        <ele>1396</ele>
        <time>2025-04-01T10:28:37Z</time>
      </trkpt>
      <trkpt lat="42.92917" lon="0.24376">
        <ele>1396</ele>
        <time>2025-04-01T10:28:41Z</time>
      </trkpt>
      <trkpt lat="42.92939" lon="0.24397">
        <ele>1393</ele>
        <time>2025-04-01T10:29:05Z</time>
      </trkpt>
      <trkpt lat="42.92948" lon="0.24401">
        <ele>1391</ele>
        <time>2025-04-01T10:29:15Z</time>
      </trkpt>
      <trkpt lat="42.9295" lon="0.24404">
        <ele>1391</ele>
        <time>2025-04-01T10:29:19Z</time>
      </trkpt>
      <trkpt lat="42.92957" lon="0.24412">
        <ele>1390</ele>
        <time>2025-04-01T10:29:29Z</time>
      </trkpt>
      <trkpt lat="42.9296" lon="0.24416">
        <ele>1390</ele>
        <time>2025-04-01T10:29:33Z</time>
      </trkpt>
      <trkpt lat="42.92965" lon="0.2442">
        <ele>1390</ele>
        <time>2025-04-01T10:29:37Z</time>
      </trkpt>
      <trkpt lat="42.92972" lon="0.24433">
        <ele>1387</ele>
        <time>2025-04-01T10:29:49Z</time>
      </trkpt>
      <trkpt lat="42.92976" lon="0.24436">
        <ele>1387</ele>
        <time>2025-04-01T10:29:53Z</time>
      </trkpt>
      <trkpt lat="42.92978" lon="0.2444">
        <ele>1386</ele>
        <time>2025-04-01T10:29:57Z</time>
      </trkpt>
      <trkpt lat="42.92993" lon="0.24452">
        <ele>1384</ele>
        <time>2025-04-01T10:30:13Z</time>
      </trkpt>
      <trkpt lat="42.92996" lon="0.24457">
        <ele>1384</ele>
        <time>2025-04-01T10:30:17Z</time>
      </trkpt>
      <trkpt lat="42.93013" lon="0.24476">
        <ele>1382</ele>
        <time>2025-04-01T10:30:37Z</time>
      </trkpt>
      <trkpt lat="42.93014" lon="0.24482">
        <ele>1381</ele>
        <time>2025-04-01T10:30:41Z</time>
      </trkpt>
      <trkpt lat="42.93022" lon="0.24496">
        <ele>1380</ele>
        <time>2025-04-01T10:30:55Z</time>
      </trkpt>
      <trkpt lat="42.93025" lon="0.24499">
        <ele>1379</ele>
        <time>2025-04-01T10:31:01Z</time>
      </trkpt>
      <trkpt lat="42.93027" lon="0.24504">
        <ele>1377</ele>
        <time>2025-04-01T10:31:35Z</time>
      </trkpt>
      <trkpt lat="42.93031" lon="0.24507">
        <ele>1377</ele>
        <time>2025-04-01T10:31:39Z</time>
      </trkpt>
      <trkpt lat="42.93033" lon="0.24513">
        <ele>1376</ele>
        <time>2025-04-01T10:31:43Z</time>
      </trkpt>
      <trkpt lat="42.93038" lon="0.24523">
        <ele>1375</ele>
        <time>2025-04-01T10:31:51Z</time>
      </trkpt>
      <trkpt lat="42.93039" lon="0.24528">
        <ele>1374</ele>
        <time>2025-04-01T10:31:55Z</time>
      </trkpt>
      <trkpt lat="42.9304" lon="0.24533">
        <ele>1373</ele>
        <time>2025-04-01T10:31:59Z</time>
      </trkpt>
      <trkpt lat="42.93043" lon="0.24547">
        <ele>1371</ele>
        <time>2025-04-01T10:32:07Z</time>
      </trkpt>
      <trkpt lat="42.93051" lon="0.24556">
        <ele>1369</ele>
        <time>2025-04-01T10:32:15Z</time>
      </trkpt>
      <trkpt lat="42.93053" lon="0.24566">
        <ele>1368</ele>
        <time>2025-04-01T10:32:23Z</time>
      </trkpt>
      <trkpt lat="42.93056" lon="0.24572">
        <ele>1367</ele>
        <time>2025-04-01T10:32:29Z</time>
      </trkpt>
      <trkpt lat="42.93059" lon="0.24577">
        <ele>1366</ele>
        <time>2025-04-01T10:32:33Z</time>
      </trkpt>
      <trkpt lat="42.93059" lon="0.24583">
        <ele>1366</ele>
        <time>2025-04-01T10:32:39Z</time>
      </trkpt>
      <trkpt lat="42.93061" lon="0.24588">
        <ele>1365</ele>
        <time>2025-04-01T10:32:57Z</time>
      </trkpt>
      <trkpt lat="42.93065" lon="0.24593">
        <ele>1360</ele>
        <time>2025-04-01T10:33:03Z</time>
      </trkpt>
      <trkpt lat="42.9307" lon="0.24613">
        <ele>1356</ele>
        <time>2025-04-01T10:33:15Z</time>
      </trkpt>
      <trkpt lat="42.93093" lon="0.24641">
        <ele>1354</ele>
        <time>2025-04-01T10:33:39Z</time>
      </trkpt>
      <trkpt lat="42.93096" lon="0.24644">
        <ele>1354</ele>
        <time>2025-04-01T10:33:43Z</time>
      </trkpt>
      <trkpt lat="42.93105" lon="0.24653">
        <ele>1355</ele>
        <time>2025-04-01T10:33:51Z</time>
      </trkpt>
      <trkpt lat="42.93109" lon="0.24658">
        <ele>1355</ele>
        <time>2025-04-01T10:33:55Z</time>
      </trkpt>
      <trkpt lat="42.93123" lon="0.24672">
        <ele>1356</ele>
        <time>2025-04-01T10:34:07Z</time>
      </trkpt>
      <trkpt lat="42.93129" lon="0.2468">
        <ele>1355</ele>
        <time>2025-04-01T10:34:15Z</time>
      </trkpt>
      <trkpt lat="42.93147" lon="0.247">
        <ele>1355</ele>
        <time>2025-04-01T10:34:31Z</time>
      </trkpt>
      <trkpt lat="42.9318" lon="0.24727">
        <ele>1358</ele>
        <time>2025-04-01T10:34:59Z</time>
      </trkpt>
      <trkpt lat="42.93187" lon="0.24738">
        <ele>1358</ele>
        <time>2025-04-01T10:35:07Z</time>
      </trkpt>
      <trkpt lat="42.9319" lon="0.24743">
        <ele>1356</ele>
        <time>2025-04-01T10:35:11Z</time>
      </trkpt>
      <trkpt lat="42.93216" lon="0.24774">
        <ele>1353</ele>
        <time>2025-04-01T10:35:41Z</time>
      </trkpt>
      <trkpt lat="42.93224" lon="0.24784">
        <ele>1353</ele>
        <time>2025-04-01T10:35:59Z</time>
      </trkpt>
      <trkpt lat="42.93232" lon="0.24794">
        <ele>1353</ele>
        <time>2025-04-01T10:36:07Z</time>
      </trkpt>
      <trkpt lat="42.93257" lon="0.24814">
        <ele>1355</ele>
        <time>2025-04-01T10:36:27Z</time>
      </trkpt>
      <trkpt lat="42.93267" lon="0.24822">
        <ele>1356</ele>
        <time>2025-04-01T10:36:35Z</time>
      </trkpt>
      <trkpt lat="42.93271" lon="0.24825">
        <ele>1357</ele>
        <time>2025-04-01T10:36:37Z</time>
      </trkpt>
      <trkpt lat="42.93291" lon="0.24847">
        <ele>1356</ele>
        <time>2025-04-01T10:37:07Z</time>
      </trkpt>
      <trkpt lat="42.93303" lon="0.24862">
        <ele>1356</ele>
        <time>2025-04-01T10:37:27Z</time>
      </trkpt>
      <trkpt lat="42.93312" lon="0.24871">
        <ele>1356</ele>
        <time>2025-04-01T10:37:35Z</time>
      </trkpt>
      <trkpt lat="42.93326" lon="0.24886">
        <ele>1358</ele>
        <time>2025-04-01T10:37:49Z</time>
      </trkpt>
      <trkpt lat="42.9333" lon="0.2489">
        <ele>1358</ele>
        <time>2025-04-01T10:38:05Z</time>
      </trkpt>
      <trkpt lat="42.93358" lon="0.24914">
        <ele>1359</ele>
        <time>2025-04-01T10:38:33Z</time>
      </trkpt>
      <trkpt lat="42.9338" lon="0.24924">
        <ele>1357</ele>
        <time>2025-04-01T10:38:53Z</time>
      </trkpt>
      <trkpt lat="42.93385" lon="0.24926">
        <ele>1358</ele>
        <time>2025-04-01T10:38:57Z</time>
      </trkpt>
      <trkpt lat="42.9339" lon="0.24928">
        <ele>1358</ele>
        <time>2025-04-01T10:39:01Z</time>
      </trkpt>
      <trkpt lat="42.93395" lon="0.24929">
        <ele>1357</ele>
        <time>2025-04-01T10:39:05Z</time>
      </trkpt>
      <trkpt lat="42.93424" lon="0.24937">
        <ele>1358</ele>
        <time>2025-04-01T10:39:29Z</time>
      </trkpt>
      <trkpt lat="42.93442" lon="0.24944">
        <ele>1360</ele>
        <time>2025-04-01T10:39:45Z</time>
      </trkpt>
      <trkpt lat="42.93472" lon="0.24949">
        <ele>1362</ele>
        <time>2025-04-01T10:40:11Z</time>
      </trkpt>
      <trkpt lat="42.93482" lon="0.2495">
        <ele>1364</ele>
        <time>2025-04-01T10:40:19Z</time>
      </trkpt>
      <trkpt lat="42.93491" lon="0.24951">
        <ele>1364</ele>
        <time>2025-04-01T10:40:27Z</time>
      </trkpt>
      <trkpt lat="42.93511" lon="0.24949">
        <ele>1364</ele>
        <time>2025-04-01T10:40:43Z</time>
      </trkpt>
      <trkpt lat="42.93519" lon="0.24947">
        <ele>1363</ele>
        <time>2025-04-01T10:41:13Z</time>
      </trkpt>
      <trkpt lat="42.93524" lon="0.24946">
        <ele>1364</ele>
        <time>2025-04-01T10:41:17Z</time>
      </trkpt>
      <trkpt lat="42.93538" lon="0.2495">
        <ele>1365</ele>
        <time>2025-04-01T10:41:29Z</time>
      </trkpt>
      <trkpt lat="42.93553" lon="0.24952">
        <ele>1366</ele>
        <time>2025-04-01T10:41:41Z</time>
      </trkpt>
      <trkpt lat="42.93563" lon="0.24956">
        <ele>1367</ele>
        <time>2025-04-01T10:41:49Z</time>
      </trkpt>
      <trkpt lat="42.93588" lon="0.24956">
        <ele>1365</ele>
        <time>2025-04-01T10:42:21Z</time>
      </trkpt>
      <trkpt lat="42.93597" lon="0.24957">
        <ele>1362</ele>
        <time>2025-04-01T10:42:29Z</time>
      </trkpt>
      <trkpt lat="42.93616" lon="0.24961">
        <ele>1359</ele>
        <time>2025-04-01T10:42:45Z</time>
      </trkpt>
      <trkpt lat="42.93621" lon="0.24963">
        <ele>1358</ele>
        <time>2025-04-01T10:42:49Z</time>
      </trkpt>
      <trkpt lat="42.93633" lon="0.24965">
        <ele>1359</ele>
        <time>2025-04-01T10:43:19Z</time>
      </trkpt>
      <trkpt lat="42.93638" lon="0.24966">
        <ele>1359</ele>
        <time>2025-04-01T10:43:23Z</time>
      </trkpt>
      <trkpt lat="42.93643" lon="0.24968">
        <ele>1359</ele>
        <time>2025-04-01T10:43:27Z</time>
      </trkpt>
      <trkpt lat="42.93677" lon="0.24974">
        <ele>1362</ele>
        <time>2025-04-01T10:43:55Z</time>
      </trkpt>
      <trkpt lat="42.93682" lon="0.24977">
        <ele>1362</ele>
        <time>2025-04-01T10:43:59Z</time>
      </trkpt>
      <trkpt lat="42.93692" lon="0.2498">
        <ele>1363</ele>
        <time>2025-04-01T10:44:05Z</time>
      </trkpt>
      <trkpt lat="42.93702" lon="0.24981">
        <ele>1367</ele>
        <time>2025-04-01T10:44:11Z</time>
      </trkpt>
      <trkpt lat="42.93727" lon="0.2499">
        <ele>1365</ele>
        <time>2025-04-01T10:44:33Z</time>
      </trkpt>
      <trkpt lat="42.93736" lon="0.24988">
        <ele>1364</ele>
        <time>2025-04-01T10:44:41Z</time>
      </trkpt>
      <trkpt lat="42.93756" lon="0.24996">
        <ele>1362</ele>
        <time>2025-04-01T10:44:57Z</time>
      </trkpt>
      <trkpt lat="42.93777" lon="0.2501">
        <ele>1358</ele>
        <time>2025-04-01T10:45:15Z</time>
      </trkpt>
      <trkpt lat="42.93781" lon="0.25014">
        <ele>1357</ele>
        <time>2025-04-01T10:45:19Z</time>
      </trkpt>
      <trkpt lat="42.93789" lon="0.25017">
        <ele>1358</ele>
        <time>2025-04-01T10:45:23Z</time>
      </trkpt>
      <trkpt lat="42.93793" lon="0.25017">
        <ele>1359</ele>
        <time>2025-04-01T10:45:27Z</time>
      </trkpt>
      <trkpt lat="42.93796" lon="0.25015">
        <ele>1359</ele>
        <time>2025-04-01T10:45:31Z</time>
      </trkpt>
      <trkpt lat="42.93794" lon="0.25011">
        <ele>1359</ele>
        <time>2025-04-01T10:45:39Z</time>
      </trkpt>
      <trkpt lat="42.93773" lon="0.24964">
        <ele>1352</ele>
        <time>2025-04-01T10:46:09Z</time>
      </trkpt>
      <trkpt lat="42.93771" lon="0.24958">
        <ele>1352</ele>
        <time>2025-04-01T10:46:13Z</time>
      </trkpt>
      <trkpt lat="42.93766" lon="0.24956">
        <ele>1351</ele>
        <time>2025-04-01T10:46:59Z</time>
      </trkpt>
      <trkpt lat="42.93761" lon="0.24944">
        <ele>1350</ele>
        <time>2025-04-01T10:47:07Z</time>
      </trkpt>
      <trkpt lat="42.93757" lon="0.24931">
        <ele>1349</ele>
        <time>2025-04-01T10:47:15Z</time>
      </trkpt>
      <trkpt lat="42.93753" lon="0.24927">
        <ele>1349</ele>
        <time>2025-04-01T10:47:19Z</time>
      </trkpt>
      <trkpt lat="42.93735" lon="0.24887">
        <ele>1345</ele>
        <time>2025-04-01T10:47:57Z</time>
      </trkpt>
      <trkpt lat="42.93728" lon="0.24868">
        <ele>1345</ele>
        <time>2025-04-01T10:48:09Z</time>
      </trkpt>
      <trkpt lat="42.93729" lon="0.24847">
        <ele>1345</ele>
        <time>2025-04-01T10:48:21Z</time>
      </trkpt>
      <trkpt lat="42.93731" lon="0.24835">
        <ele>1343</ele>
        <time>2025-04-01T10:48:29Z</time>
      </trkpt>
      <trkpt lat="42.93735" lon="0.24832">
        <ele>1343</ele>
        <time>2025-04-01T10:48:33Z</time>
      </trkpt>
      <trkpt lat="42.93737" lon="0.24817">
        <ele>1342</ele>
        <time>2025-04-01T10:48:41Z</time>
      </trkpt>
      <trkpt lat="42.93736" lon="0.24803">
        <ele>1340</ele>
        <time>2025-04-01T10:48:49Z</time>
      </trkpt>
      <trkpt lat="42.93731" lon="0.24783">
        <ele>1339</ele>
        <time>2025-04-01T10:49:01Z</time>
      </trkpt>
      <trkpt lat="42.93728" lon="0.24777">
        <ele>1339</ele>
        <time>2025-04-01T10:49:05Z</time>
      </trkpt>
      <trkpt lat="42.93721" lon="0.24767">
        <ele>1341</ele>
        <time>2025-04-01T10:49:15Z</time>
      </trkpt>
      <trkpt lat="42.93716" lon="0.24754">
        <ele>1340</ele>
        <time>2025-04-01T10:49:23Z</time>
      </trkpt>
      <trkpt lat="42.93713" lon="0.2474">
        <ele>1339</ele>
        <time>2025-04-01T10:49:31Z</time>
      </trkpt>
      <trkpt lat="42.93715" lon="0.24725">
        <ele>1338</ele>
        <time>2025-04-01T10:49:39Z</time>
      </trkpt>
      <trkpt lat="42.93719" lon="0.24712">
        <ele>1338</ele>
        <time>2025-04-01T10:49:47Z</time>
      </trkpt>
      <trkpt lat="42.93721" lon="0.24697">
        <ele>1337</ele>
        <time>2025-04-01T10:49:55Z</time>
      </trkpt>
      <trkpt lat="42.9372" lon="0.2469">
        <ele>1336</ele>
        <time>2025-04-01T10:49:59Z</time>
      </trkpt>
      <trkpt lat="42.93719" lon="0.24677">
        <ele>1335</ele>
        <time>2025-04-01T10:50:07Z</time>
      </trkpt>
      <trkpt lat="42.93716" lon="0.24651">
        <ele>1334</ele>
        <time>2025-04-01T10:50:37Z</time>
      </trkpt>
      <trkpt lat="42.93716" lon="0.24644">
        <ele>1334</ele>
        <time>2025-04-01T10:50:41Z</time>
      </trkpt>
      <trkpt lat="42.93715" lon="0.24639">
        <ele>1333</ele>
        <time>2025-04-01T10:50:45Z</time>
      </trkpt>
      <trkpt lat="42.93706" lon="0.2462">
        <ele>1331</ele>
        <time>2025-04-01T10:50:59Z</time>
      </trkpt>
      <trkpt lat="42.93689" lon="0.24594">
        <ele>1330</ele>
        <time>2025-04-01T10:51:19Z</time>
      </trkpt>
      <trkpt lat="42.93685" lon="0.24588">
        <ele>1330</ele>
        <time>2025-04-01T10:51:23Z</time>
      </trkpt>
      <trkpt lat="42.93685" lon="0.24583">
        <ele>1331</ele>
        <time>2025-04-01T10:51:25Z</time>
      </trkpt>
      <trkpt lat="42.93687" lon="0.24575">
        <ele>1331</ele>
        <time>2025-04-01T10:51:29Z</time>
      </trkpt>
      <trkpt lat="42.93693" lon="0.24574">
        <ele>1330</ele>
        <time>2025-04-01T10:51:33Z</time>
      </trkpt>
      <trkpt lat="42.9371" lon="0.2457">
        <ele>1330</ele>
        <time>2025-04-01T10:51:47Z</time>
      </trkpt>
      <trkpt lat="42.93719" lon="0.24568">
        <ele>1330</ele>
        <time>2025-04-01T10:51:55Z</time>
      </trkpt>
      <trkpt lat="42.93738" lon="0.2458">
        <ele>1329</ele>
        <time>2025-04-01T10:52:11Z</time>
      </trkpt>
      <trkpt lat="42.93779" lon="0.24592">
        <ele>1330</ele>
        <time>2025-04-01T10:52:41Z</time>
      </trkpt>
      <trkpt lat="42.93791" lon="0.24595">
        <ele>1330</ele>
        <time>2025-04-01T10:52:49Z</time>
      </trkpt>
      <trkpt lat="42.93831" lon="0.24606">
        <ele>1326</ele>
        <time>2025-04-01T10:53:21Z</time>
      </trkpt>
      <trkpt lat="42.93857" lon="0.24603">
        <ele>1326</ele>
        <time>2025-04-01T10:53:41Z</time>
      </trkpt>
      <trkpt lat="42.93877" lon="0.24596">
        <ele>1325</ele>
        <time>2025-04-01T10:53:57Z</time>
      </trkpt>
      <trkpt lat="42.93882" lon="0.24594">
        <ele>1324</ele>
        <time>2025-04-01T10:54:01Z</time>
      </trkpt>
      <trkpt lat="42.93897" lon="0.24599">
        <ele>1322</ele>
        <time>2025-04-01T10:54:13Z</time>
      </trkpt>
      <trkpt lat="42.93923" lon="0.24599">
        <ele>1318</ele>
        <time>2025-04-01T10:54:33Z</time>
      </trkpt>
      <trkpt lat="42.93951" lon="0.2459">
        <ele>1319</ele>
        <time>2025-04-01T10:54:53Z</time>
      </trkpt>
      <trkpt lat="42.93956" lon="0.24587">
        <ele>1319</ele>
        <time>2025-04-01T10:54:57Z</time>
      </trkpt>
      <trkpt lat="42.93967" lon="0.24584">
        <ele>1321</ele>
        <time>2025-04-01T10:55:05Z</time>
      </trkpt>
      <trkpt lat="42.9397" lon="0.24586">
        <ele>1320</ele>
        <time>2025-04-01T10:55:13Z</time>
      </trkpt>
      <trkpt lat="42.93979" lon="0.2458">
        <ele>1319</ele>
        <time>2025-04-01T10:57:37Z</time>
      </trkpt>
      <trkpt lat="42.94033" lon="0.24547">
        <ele>1319</ele>
        <time>2025-04-01T10:58:09Z</time>
      </trkpt>
      <trkpt lat="42.94042" lon="0.24538">
        <ele>1318</ele>
        <time>2025-04-01T10:58:15Z</time>
      </trkpt>
      <trkpt lat="42.94049" lon="0.24523">
        <ele>1318</ele>
        <time>2025-04-01T10:58:21Z</time>
      </trkpt>
      <trkpt lat="42.94058" lon="0.24518">
        <ele>1318</ele>
        <time>2025-04-01T10:58:29Z</time>
      </trkpt>
      <trkpt lat="42.9407" lon="0.24518">
        <ele>1317</ele>
        <time>2025-04-01T10:58:39Z</time>
      </trkpt>
      <trkpt lat="42.94082" lon="0.2452">
        <ele>1318</ele>
        <time>2025-04-01T10:58:47Z</time>
      </trkpt>
      <trkpt lat="42.9409" lon="0.24529">
        <ele>1317</ele>
        <time>2025-04-01T10:58:55Z</time>
      </trkpt>
      <trkpt lat="42.941" lon="0.24537">
        <ele>1317</ele>
        <time>2025-04-01T10:59:03Z</time>
      </trkpt>
      <trkpt lat="42.94121" lon="0.24543">
        <ele>1315</ele>
        <time>2025-04-01T10:59:21Z</time>
      </trkpt>
      <trkpt lat="42.94162" lon="0.24544">
        <ele>1311</ele>
        <time>2025-04-01T10:59:49Z</time>
      </trkpt>
      <trkpt lat="42.94202" lon="0.24519">
        <ele>1308</ele>
        <time>2025-04-01T11:00:21Z</time>
      </trkpt>
      <trkpt lat="42.9422" lon="0.24504">
        <ele>1307</ele>
        <time>2025-04-01T11:00:37Z</time>
      </trkpt>
      <trkpt lat="42.94252" lon="0.24462">
        <ele>1304</ele>
        <time>2025-04-01T11:01:09Z</time>
      </trkpt>
      <trkpt lat="42.94282" lon="0.24415">
        <ele>1301</ele>
        <time>2025-04-01T11:01:41Z</time>
      </trkpt>
      <trkpt lat="42.94305" lon="0.24367">
        <ele>1295</ele>
        <time>2025-04-01T11:02:11Z</time>
      </trkpt>
      <trkpt lat="42.94311" lon="0.24346">
        <ele>1295</ele>
        <time>2025-04-01T11:02:23Z</time>
      </trkpt>
      <trkpt lat="42.94323" lon="0.24289">
        <ele>1294</ele>
        <time>2025-04-01T11:02:55Z</time>
      </trkpt>
      <trkpt lat="42.94325" lon="0.24276">
        <ele>1292</ele>
        <time>2025-04-01T11:03:03Z</time>
      </trkpt>
      <trkpt lat="42.94322" lon="0.24239">
        <ele>1289</ele>
        <time>2025-04-01T11:03:25Z</time>
      </trkpt>
      <trkpt lat="42.9431" lon="0.24186">
        <ele>1282</ele>
        <time>2025-04-01T11:03:57Z</time>
      </trkpt>
      <trkpt lat="42.94307" lon="0.24174">
        <ele>1279</ele>
        <time>2025-04-01T11:04:03Z</time>
      </trkpt>
      <trkpt lat="42.94292" lon="0.24135">
        <ele>1280</ele>
        <time>2025-04-01T11:04:17Z</time>
      </trkpt>
      <trkpt lat="42.94291" lon="0.24129">
        <ele>1281</ele>
        <time>2025-04-01T11:04:19Z</time>
      </trkpt>
      <trkpt lat="42.94295" lon="0.2413">
        <ele>1279</ele>
        <time>2025-04-01T11:04:25Z</time>
      </trkpt>
      <trkpt lat="42.94297" lon="0.24123">
        <ele>1278</ele>
        <time>2025-04-01T11:04:33Z</time>
      </trkpt>
      <trkpt lat="42.94306" lon="0.24115">
        <ele>1279</ele>
        <time>2025-04-01T11:04:41Z</time>
      </trkpt>
      <trkpt lat="42.94317" lon="0.24102">
        <ele>1278</ele>
        <time>2025-04-01T11:04:51Z</time>
      </trkpt>
      <trkpt lat="42.94325" lon="0.24077">
        <ele>1276</ele>
        <time>2025-04-01T11:05:03Z</time>
      </trkpt>
      <trkpt lat="42.94329" lon="0.24065">
        <ele>1274</ele>
        <time>2025-04-01T11:05:09Z</time>
      </trkpt>
      <trkpt lat="42.94334" lon="0.24051">
        <ele>1272</ele>
        <time>2025-04-01T11:05:15Z</time>
      </trkpt>
      <trkpt lat="42.94343" lon="0.24043">
        <ele>1272</ele>
        <time>2025-04-01T11:05:21Z</time>
      </trkpt>
      <trkpt lat="42.94396" lon="0.24057">
        <ele>1268</ele>
        <time>2025-04-01T11:05:53Z</time>
      </trkpt>
      <trkpt lat="42.94427" lon="0.24044">
        <ele>1265</ele>
        <time>2025-04-01T11:06:17Z</time>
      </trkpt>
      <trkpt lat="42.94442" lon="0.2402">
        <ele>1263</ele>
        <time>2025-04-01T11:06:33Z</time>
      </trkpt>
      <trkpt lat="42.94465" lon="0.23971">
        <ele>1263</ele>
        <time>2025-04-01T11:07:03Z</time>
      </trkpt>
      <trkpt lat="42.94489" lon="0.23922">
        <ele>1261</ele>
        <time>2025-04-01T11:07:35Z</time>
      </trkpt>
      <trkpt lat="42.94495" lon="0.23913">
        <ele>1260</ele>
        <time>2025-04-01T11:07:41Z</time>
      </trkpt>
      <trkpt lat="42.94503" lon="0.23903">
        <ele>1260</ele>
        <time>2025-04-01T11:07:49Z</time>
      </trkpt>
      <trkpt lat="42.94517" lon="0.23881">
        <ele>1258</ele>
        <time>2025-04-01T11:08:05Z</time>
      </trkpt>
      <trkpt lat="42.94555" lon="0.23859">
        <ele>1254</ele>
        <time>2025-04-01T11:08:35Z</time>
      </trkpt>
      <trkpt lat="42.94563" lon="0.23853">
        <ele>1254</ele>
        <time>2025-04-01T11:08:41Z</time>
      </trkpt>
      <trkpt lat="42.94591" lon="0.23872">
        <ele>1250</ele>
        <time>2025-04-01T11:09:03Z</time>
      </trkpt>
      <trkpt lat="42.94601" lon="0.23879">
        <ele>1249</ele>
        <time>2025-04-01T11:09:11Z</time>
      </trkpt>
      <trkpt lat="42.94611" lon="0.23884">
        <ele>1248</ele>
        <time>2025-04-01T11:09:19Z</time>
      </trkpt>
      <trkpt lat="42.94638" lon="0.23911">
        <ele>1246</ele>
        <time>2025-04-01T11:09:41Z</time>
      </trkpt>
      <trkpt lat="42.94647" lon="0.23917">
        <ele>1246</ele>
        <time>2025-04-01T11:09:49Z</time>
      </trkpt>
      <trkpt lat="42.9465" lon="0.23905">
        <ele>1245</ele>
        <time>2025-04-01T11:09:57Z</time>
      </trkpt>
      <trkpt lat="42.9465" lon="0.23898">
        <ele>1243</ele>
        <time>2025-04-01T11:10:09Z</time>
      </trkpt>
    </trkseg>
  </trk>
</gpx>